Time,TemperatureF,DewpointF,PressureIn,WindDirection,WindDirectionDegrees,WindSpeedMPH,WindSpeedGustMPH,Humidity,HourlyPrecipIn,Conditions,Clouds,dailyrainin,SoftwareType,DateUTC
2013-06-21 00:02:00,69.8,55.3,17.72,NNW,348,0.0,0.0,60,0.00,,---,0.00,VWS V14.01,2013-06-21 05:02:00,
2013-06-21 00:03:00,69.8,55.3,17.72,NNW,348,0.0,0.0,60,0.00,,---,0.00,VWS V14.01,2013-06-21 05:03:00,
2013-06-21 00:04:00,69.8,55.3,17.72,NNW,348,0.0,0.0,60,0.00,,---,0.00,VWS V14.01,2013-06-21 05:04:00,
2013-06-21 00:07:00,69.8,55.3,17.72,NNW,348,0.0,0.0,60,0.00,,---,0.00,VWS V14.01,2013-06-21 05:07:00,
2013-06-21 00:08:00,69.8,55.3,17.72,NNW,348,0.0,0.0,60,0.00,,---,0.00,VWS V14.01,2013-06-21 05:08:00,
2013-06-21 00:09:00,69.8,55.3,17.72,NNW,348,0.0,0.0,60,0.00,,---,0.00,VWS V14.01,2013-06-21 05:09:00,
2013-06-21 00:12:00,69.6,55.6,17.72,NNW,348,0.0,0.0,61,0.00,,---,0.00,VWS V14.01,2013-06-21 05:12:00,
2013-06-21 00:13:00,69.6,55.6,17.72,NNW,348,0.0,0.0,61,0.00,,---,0.00,VWS V14.01,2013-06-21 05:13:00,
2013-06-21 00:14:00,69.6,55.6,17.72,NNW,348,0.0,0.0,61,0.00,,---,0.00,VWS V14.01,2013-06-21 05:14:00,
2013-06-21 00:17:00,69.4,55.9,17.72,NNW,348,0.0,0.0,62,0.00,,---,0.00,VWS V14.01,2013-06-21 05:17:00,
2013-06-21 00:18:00,69.4,55.9,17.72,NNW,348,0.0,0.0,62,0.00,,---,0.00,VWS V14.01,2013-06-21 05:18:00,
2013-06-21 00:19:00,69.4,55.9,17.72,NNW,348,0.0,0.0,62,0.00,,---,0.00,VWS V14.01,2013-06-21 05:19:00,
2013-06-21 00:22:00,69.4,55.9,17.72,NNW,348,0.0,0.0,62,0.00,,---,0.00,VWS V14.01,2013-06-21 05:22:00,
2013-06-21 00:23:00,69.4,55.9,17.72,NNW,348,0.0,0.0,62,0.00,,---,0.00,VWS V14.01,2013-06-21 05:23:00,
2013-06-21 00:24:00,69.4,55.9,17.72,NNW,348,0.0,0.0,62,0.00,,---,0.00,VWS V14.01,2013-06-21 05:24:00,
2013-06-21 00:27:00,69.3,55.7,17.72,NNW,348,0.0,0.0,62,0.00,,---,0.00,VWS V14.01,2013-06-21 05:27:00,
2013-06-21 00:28:00,69.3,55.7,17.72,NNW,348,0.0,0.0,62,0.00,,---,0.00,VWS V14.01,2013-06-21 05:28:00,
2013-06-21 00:29:00,69.3,55.7,17.72,NNW,348,0.0,0.0,62,0.00,,---,0.00,VWS V14.01,2013-06-21 05:29:00,
2013-06-21 00:30:00,69.1,55.5,17.72,NNW,348,0.0,0.0,62,0.00,,---,0.00,VWS V14.01,2013-06-21 05:30:00,
2013-06-21 00:32:00,69.1,55.5,17.72,NNW,348,0.0,0.0,62,0.00,,---,0.00,VWS V14.01,2013-06-21 05:32:00,
2013-06-21 00:33:00,69.1,55.5,17.72,NNW,348,0.0,0.0,62,0.00,,---,0.00,VWS V14.01,2013-06-21 05:33:00,
2013-06-21 00:34:00,69.1,55.5,17.72,NNW,348,0.0,0.0,62,0.00,,---,0.00,VWS V14.01,2013-06-21 05:34:00,
2013-06-21 00:35:00,69.1,55.5,17.72,NNW,346,0.0,0.0,62,0.00,,---,0.00,VWS V14.01,2013-06-21 05:35:00,
2013-06-21 00:37:00,69.1,55.5,17.72,NNW,348,0.0,0.0,62,0.00,,---,0.00,VWS V14.01,2013-06-21 05:37:00,
2013-06-21 00:39:00,69.1,55.5,17.72,NNW,348,0.0,0.0,62,0.00,,---,0.00,VWS V14.01,2013-06-21 05:39:00,
2013-06-21 00:40:00,69.1,55.5,17.72,NNW,348,0.0,0.0,62,0.00,,---,0.00,VWS V14.01,2013-06-21 05:40:00,
2013-06-21 00:43:00,69.1,55.5,17.72,NNW,348,0.0,0.0,62,0.00,,---,0.00,VWS V14.01,2013-06-21 05:43:00,
2013-06-21 00:44:00,68.9,55.8,17.72,NNW,348,0.0,0.0,63,0.00,,---,0.00,VWS V14.01,2013-06-21 05:44:00,
2013-06-21 00:45:00,68.9,55.8,17.72,NNW,348,0.0,0.0,63,0.00,,---,0.00,VWS V14.01,2013-06-21 05:45:00,
2013-06-21 00:48:00,68.9,55.8,17.72,NNW,348,0.0,0.0,63,0.00,,---,0.00,VWS V14.01,2013-06-21 05:48:00,
2013-06-21 00:49:00,68.9,55.8,17.72,NNW,348,0.0,0.0,63,0.00,,---,0.00,VWS V14.01,2013-06-21 05:49:00,
2013-06-21 00:50:00,68.9,55.8,17.72,NNW,348,0.0,0.0,63,0.00,,---,0.00,VWS V14.01,2013-06-21 05:50:00,
2013-06-21 00:53:00,68.7,55.6,17.72,NNW,348,0.0,0.0,63,0.00,,---,0.00,VWS V14.01,2013-06-21 05:53:00,
2013-06-21 00:54:00,68.7,55.6,17.72,NNW,348,0.0,0.0,63,0.00,,---,0.00,VWS V14.01,2013-06-21 05:54:00,
2013-06-21 00:55:00,68.7,55.6,17.72,NNW,348,0.0,0.0,63,0.00,,---,0.00,VWS V14.01,2013-06-21 05:55:00,
2013-06-21 00:58:00,68.7,55.6,17.72,NNW,348,0.0,0.0,63,0.00,,---,0.00,VWS V14.01,2013-06-21 05:58:00,
2013-06-21 00:59:00,68.7,55.6,17.72,NNW,348,0.0,0.0,63,0.00,,---,0.00,VWS V14.01,2013-06-21 05:59:00,
2013-06-21 01:00:00,68.7,55.6,17.72,NNW,333,3.1,3.1,63,0.00,,---,0.00,VWS V14.01,2013-06-21 06:00:00,
2013-06-21 01:01:00,68.7,55.6,17.72,NNW,333,3.1,3.1,63,0.00,,---,0.00,VWS V14.01,2013-06-21 06:01:00,
2013-06-21 01:04:00,68.5,56.3,17.72,NW,324,3.1,4.0,65,0.00,,---,0.00,VWS V14.01,2013-06-21 06:04:00,
2013-06-21 01:05:00,68.5,56.3,17.72,WNW,302,2.7,3.1,65,0.00,,---,0.00,VWS V14.01,2013-06-21 06:05:00,
2013-06-21 01:06:00,68.5,56.3,17.72,NW,312,3.1,3.1,65,0.00,,---,0.00,VWS V14.01,2013-06-21 06:06:00,
2013-06-21 01:09:00,68.4,56.6,17.72,WNW,282,3.1,3.1,66,0.00,,---,0.00,VWS V14.01,2013-06-21 06:09:00,
2013-06-21 01:10:00,68.4,56.6,17.72,NW,315,3.1,3.1,66,0.00,,---,0.00,VWS V14.01,2013-06-21 06:10:00,
2013-06-21 01:11:00,68.4,56.6,17.72,NW,316,2.7,3.1,66,0.00,,---,0.00,VWS V14.01,2013-06-21 06:11:00,
2013-06-21 01:14:00,68.4,56.6,17.72,NW,316,2.7,2.7,66,0.00,,---,0.00,VWS V14.01,2013-06-21 06:14:00,
2013-06-21 01:15:00,68.4,56.6,17.72,NW,318,4.0,4.0,66,0.00,,---,0.00,VWS V14.01,2013-06-21 06:15:00,
2013-06-21 01:17:00,68.4,56.6,17.72,NW,318,4.0,4.0,66,0.00,,---,0.00,VWS V14.01,2013-06-21 06:17:00,
2013-06-21 01:19:00,68.4,56.6,17.72,NW,323,4.0,4.0,66,0.00,,---,0.00,VWS V14.01,2013-06-21 06:19:00,
2013-06-21 01:20:00,68.4,57.0,17.72,NW,323,4.0,4.0,67,0.00,,---,0.00,VWS V14.01,2013-06-21 06:20:00,
2013-06-21 01:22:00,68.4,57.0,17.72,NW,323,0.0,0.0,67,0.00,,---,0.00,VWS V14.01,2013-06-21 06:22:00,
2013-06-21 01:24:00,68.4,57.0,17.72,NW,324,0.0,0.0,67,0.00,,---,0.00,VWS V14.01,2013-06-21 06:24:00,
2013-06-21 01:25:00,68.4,57.0,17.72,NW,324,0.0,0.0,67,0.00,,---,0.00,VWS V14.01,2013-06-21 06:25:00,
2013-06-21 01:26:00,68.4,57.0,17.72,NW,324,0.0,0.0,67,0.00,,---,0.00,VWS V14.01,2013-06-21 06:26:00,
2013-06-21 01:27:00,68.4,57.0,17.72,NW,324,0.0,0.0,67,0.00,,---,0.00,VWS V14.01,2013-06-21 06:27:00,
2013-06-21 01:29:00,68.4,57.0,17.72,NW,324,0.0,0.0,67,0.00,,---,0.00,VWS V14.01,2013-06-21 06:29:00,
2013-06-21 01:30:00,68.2,56.8,17.72,NW,324,0.0,0.0,67,0.00,,---,0.00,VWS V14.01,2013-06-21 06:30:00,
2013-06-21 01:31:00,68.2,56.8,17.72,NW,324,0.0,0.0,67,0.00,,---,0.00,VWS V14.01,2013-06-21 06:31:00,
2013-06-21 01:32:00,68.2,56.8,17.72,NW,324,0.0,0.0,67,0.00,,---,0.00,VWS V14.01,2013-06-21 06:32:00,
2013-06-21 01:34:00,68.2,56.8,17.72,NW,324,0.0,0.0,67,0.00,,---,0.00,VWS V14.01,2013-06-21 06:34:00,
2013-06-21 01:35:00,68.0,56.7,17.72,NW,324,0.0,0.0,67,0.00,,---,0.00,VWS V14.01,2013-06-21 06:35:00,
2013-06-21 01:36:00,68.0,56.7,17.72,NW,324,0.0,0.0,67,0.00,,---,0.00,VWS V14.01,2013-06-21 06:36:00,
2013-06-21 01:37:00,68.0,56.7,17.72,NW,324,0.0,0.0,67,0.00,,---,0.00,VWS V14.01,2013-06-21 06:37:00,
2013-06-21 01:39:00,68.0,56.7,17.72,NW,324,0.0,0.0,67,0.00,,---,0.00,VWS V14.01,2013-06-21 06:39:00,
2013-06-21 01:40:00,68.0,56.7,17.72,NW,324,0.0,0.0,67,0.00,,---,0.00,VWS V14.01,2013-06-21 06:40:00,
2013-06-21 01:41:00,68.0,56.7,17.72,NW,324,0.0,0.0,67,0.00,,---,0.00,VWS V14.01,2013-06-21 06:41:00,
2013-06-21 01:43:00,68.0,56.7,17.72,NW,324,0.0,0.0,67,0.00,,---,0.00,VWS V14.01,2013-06-21 06:43:00,
2013-06-21 01:44:00,68.0,56.7,17.72,NW,324,0.0,0.0,67,0.00,,---,0.00,VWS V14.01,2013-06-21 06:44:00,
2013-06-21 01:45:00,68.0,56.7,17.72,NW,324,0.0,0.0,67,0.00,,---,0.00,VWS V14.01,2013-06-21 06:45:00,
2013-06-21 01:46:00,68.0,56.7,17.72,NW,324,0.0,0.0,67,0.00,,---,0.00,VWS V14.01,2013-06-21 06:46:00,
2013-06-21 01:48:00,68.0,56.7,17.72,NW,324,0.0,0.0,67,0.00,,---,0.00,VWS V14.01,2013-06-21 06:48:00,
2013-06-21 01:49:00,68.0,56.7,17.72,NW,324,0.0,0.0,67,0.00,,---,0.00,VWS V14.01,2013-06-21 06:49:00,
2013-06-21 01:50:00,68.0,56.7,17.72,NW,324,0.0,0.0,67,0.00,,---,0.00,VWS V14.01,2013-06-21 06:50:00,
2013-06-21 01:51:00,68.0,56.7,17.72,NW,324,0.0,0.0,67,0.00,,---,0.00,VWS V14.01,2013-06-21 06:51:00,
2013-06-21 01:53:00,68.0,56.7,17.72,NW,324,0.0,0.0,67,0.00,,---,0.00,VWS V14.01,2013-06-21 06:53:00,
2013-06-21 01:54:00,68.0,56.7,17.72,NW,324,0.0,0.0,67,0.00,,---,0.00,VWS V14.01,2013-06-21 06:54:00,
2013-06-21 01:55:00,68.0,56.7,17.72,NW,324,0.0,0.0,67,0.00,,---,0.00,VWS V14.01,2013-06-21 06:55:00,
2013-06-21 01:56:00,68.0,56.7,17.72,NW,324,0.0,0.0,67,0.00,,---,0.00,VWS V14.01,2013-06-21 06:56:00,
2013-06-21 01:58:00,68.0,56.7,17.72,NW,324,0.0,0.0,67,0.00,,---,0.00,VWS V14.01,2013-06-21 06:58:00,
2013-06-21 02:00:00,68.0,56.7,17.72,NW,324,0.0,0.0,67,0.00,,---,0.00,VWS V14.01,2013-06-21 07:00:00,
2013-06-21 02:01:00,68.0,56.7,17.72,NW,313,0.0,0.0,67,0.00,,---,0.00,VWS V14.01,2013-06-21 07:01:00,
2013-06-21 02:02:00,68.0,56.7,17.72,NW,313,0.0,0.0,67,0.00,,---,0.00,VWS V14.01,2013-06-21 07:02:00,
2013-06-21 02:03:00,67.8,56.5,17.72,NW,313,0.0,0.0,67,0.00,,---,0.00,VWS V14.01,2013-06-21 07:03:00,
2013-06-21 02:05:00,67.8,56.5,17.72,NW,313,0.0,0.0,67,0.00,,---,0.00,VWS V14.01,2013-06-21 07:05:00,
2013-06-21 02:06:00,67.8,56.5,17.72,NW,313,0.0,0.0,67,0.00,,---,0.00,VWS V14.01,2013-06-21 07:06:00,
2013-06-21 02:07:00,67.8,56.5,17.72,NW,313,0.0,0.0,67,0.00,,---,0.00,VWS V14.01,2013-06-21 07:07:00,
2013-06-21 02:08:00,67.8,56.5,17.72,WNW,299,0.0,0.0,67,0.00,,---,0.00,VWS V14.01,2013-06-21 07:08:00,
2013-06-21 02:10:00,67.8,56.9,17.72,WNW,299,0.0,0.0,68,0.00,,---,0.00,VWS V14.01,2013-06-21 07:10:00,
2013-06-21 02:12:00,67.8,56.9,17.72,WNW,299,0.0,0.0,68,0.00,,---,0.00,VWS V14.01,2013-06-21 07:12:00,
2013-06-21 02:13:00,67.8,56.9,17.72,WNW,299,0.0,0.0,68,0.00,,---,0.00,VWS V14.01,2013-06-21 07:13:00,
2013-06-21 02:15:00,67.8,56.9,17.72,WNW,299,0.0,0.0,68,0.00,,---,0.00,VWS V14.01,2013-06-21 07:15:00,
2013-06-21 02:17:00,67.8,56.9,17.72,WNW,299,0.0,0.0,68,0.00,,---,0.00,VWS V14.01,2013-06-21 07:17:00,
2013-06-21 02:18:00,67.8,56.9,17.72,WNW,299,0.0,0.0,68,0.00,,---,0.00,VWS V14.01,2013-06-21 07:18:00,
2013-06-21 02:20:00,67.8,56.9,17.72,WNW,299,0.0,0.0,68,0.00,,---,0.00,VWS V14.01,2013-06-21 07:20:00,
2013-06-21 02:22:00,67.8,56.9,17.72,WNW,299,0.0,0.0,68,0.00,,---,0.00,VWS V14.01,2013-06-21 07:22:00,
2013-06-21 02:23:00,67.8,56.9,17.72,WNW,299,0.0,0.0,68,0.00,,---,0.00,VWS V14.01,2013-06-21 07:23:00,
2013-06-21 02:25:00,67.8,56.9,17.72,WNW,299,0.0,0.0,68,0.00,,---,0.00,VWS V14.01,2013-06-21 07:25:00,
2013-06-21 02:27:00,67.8,56.9,17.72,WNW,299,0.0,0.0,68,0.00,,---,0.00,VWS V14.01,2013-06-21 07:27:00,
2013-06-21 02:28:00,67.8,57.3,17.72,WNW,299,0.0,0.0,69,0.00,,---,0.00,VWS V14.01,2013-06-21 07:28:00,
2013-06-21 02:31:00,67.8,57.3,17.72,NW,312,3.6,3.6,69,0.00,,---,0.00,VWS V14.01,2013-06-21 07:31:00,
2013-06-21 02:32:00,67.8,57.3,17.72,NW,312,3.6,3.6,69,0.00,,---,0.00,VWS V14.01,2013-06-21 07:32:00,
2013-06-21 02:33:00,67.8,57.3,17.72,NW,312,3.6,3.6,69,0.00,,---,0.00,VWS V14.01,2013-06-21 07:33:00,
2013-06-21 02:34:00,67.8,57.3,17.72,NNW,329,3.1,3.1,69,0.00,,---,0.00,VWS V14.01,2013-06-21 07:34:00,
2013-06-21 02:36:00,67.8,57.3,17.72,NNW,336,3.6,3.6,69,0.00,,---,0.00,VWS V14.01,2013-06-21 07:36:00,
2013-06-21 02:37:00,67.8,57.3,17.72,NNW,336,3.6,3.6,69,0.00,,---,0.00,VWS V14.01,2013-06-21 07:37:00,
2013-06-21 02:38:00,67.8,57.7,17.72,NNW,333,3.6,3.6,70,0.00,,---,0.00,VWS V14.01,2013-06-21 07:38:00,
2013-06-21 02:39:00,67.8,57.7,17.72,NNW,333,3.6,3.6,70,0.00,,---,0.00,VWS V14.01,2013-06-21 07:39:00,
2013-06-21 02:41:00,68.0,57.5,17.72,NW,319,3.6,3.6,69,0.00,,---,0.00,VWS V14.01,2013-06-21 07:41:00,
2013-06-21 02:42:00,68.0,57.5,17.72,NW,318,3.6,3.6,69,0.00,,---,0.00,VWS V14.01,2013-06-21 07:42:00,
2013-06-21 02:43:00,68.0,57.5,17.72,NW,322,3.6,3.6,69,0.00,,---,0.00,VWS V14.01,2013-06-21 07:43:00,
2013-06-21 02:44:00,68.0,57.5,17.72,NW,322,2.7,3.6,69,0.00,,---,0.00,VWS V14.01,2013-06-21 07:44:00,
2013-06-21 02:46:00,68.0,57.9,17.72,NW,322,2.7,2.7,70,0.00,,---,0.00,VWS V14.01,2013-06-21 07:46:00,
2013-06-21 02:47:00,68.0,57.9,17.72,NW,322,0.0,0.0,70,0.00,,---,0.00,VWS V14.01,2013-06-21 07:47:00,
2013-06-21 02:48:00,68.0,57.9,17.72,NW,322,0.0,0.0,70,0.00,,---,0.00,VWS V14.01,2013-06-21 07:48:00,
2013-06-21 02:49:00,68.0,57.9,17.72,NW,322,0.0,0.0,70,0.00,,---,0.00,VWS V14.01,2013-06-21 07:49:00,
2013-06-21 02:51:00,68.0,57.9,17.72,NW,322,0.0,0.0,70,0.00,,---,0.00,VWS V14.01,2013-06-21 07:51:00,
2013-06-21 02:52:00,68.0,57.9,17.72,NW,322,0.0,0.0,70,0.00,,---,0.00,VWS V14.01,2013-06-21 07:52:00,
2013-06-21 02:53:00,68.0,57.9,17.72,NW,322,0.0,0.0,70,0.00,,---,0.00,VWS V14.01,2013-06-21 07:53:00,
2013-06-21 02:54:00,68.0,57.9,17.72,NW,322,0.0,0.0,70,0.00,,---,0.00,VWS V14.01,2013-06-21 07:54:00,
2013-06-21 02:56:00,68.0,57.9,17.72,NW,322,0.0,0.0,70,0.00,,---,0.00,VWS V14.01,2013-06-21 07:56:00,
2013-06-21 02:57:00,68.0,57.9,17.72,NW,322,0.0,0.0,70,0.00,,---,0.00,VWS V14.01,2013-06-21 07:57:00,
2013-06-21 02:59:00,68.0,57.9,17.72,NW,322,0.0,0.0,70,0.00,,---,0.00,VWS V14.01,2013-06-21 07:59:00,
2013-06-21 03:01:00,68.0,57.9,17.72,NW,322,0.0,0.0,70,0.00,,---,0.00,VWS V14.01,2013-06-21 08:01:00,
2013-06-21 03:02:00,68.0,57.9,17.72,NW,322,0.0,0.0,70,0.00,,---,0.00,VWS V14.01,2013-06-21 08:02:00,
2013-06-21 03:03:00,68.0,57.9,17.72,NW,322,0.0,0.0,70,0.00,,---,0.00,VWS V14.01,2013-06-21 08:03:00,
2013-06-21 03:04:00,68.0,57.9,17.72,NW,322,0.0,0.0,70,0.00,,---,0.00,VWS V14.01,2013-06-21 08:04:00,
2013-06-21 03:06:00,68.0,57.9,17.72,NW,322,0.0,0.0,70,0.00,,---,0.00,VWS V14.01,2013-06-21 08:06:00,
2013-06-21 03:07:00,68.0,57.9,17.72,NW,322,0.0,0.0,70,0.00,,---,0.00,VWS V14.01,2013-06-21 08:07:00,
2013-06-21 03:08:00,68.0,57.9,17.72,NW,322,0.0,0.0,70,0.00,,---,0.00,VWS V14.01,2013-06-21 08:08:00,
2013-06-21 03:09:00,68.0,57.9,17.72,NW,322,0.0,0.0,70,0.00,,---,0.00,VWS V14.01,2013-06-21 08:09:00,
2013-06-21 03:12:00,68.0,57.9,17.72,NW,322,0.0,0.0,70,0.00,,---,0.00,VWS V14.01,2013-06-21 08:12:00,
2013-06-21 03:13:00,68.0,57.9,17.72,NW,322,0.0,0.0,70,0.00,,---,0.00,VWS V14.01,2013-06-21 08:13:00,
2013-06-21 03:14:00,68.0,57.9,17.72,NW,322,0.0,0.0,70,0.00,,---,0.00,VWS V14.01,2013-06-21 08:14:00,
2013-06-21 03:17:00,68.0,57.9,17.72,NW,322,0.0,0.0,70,0.00,,---,0.00,VWS V14.01,2013-06-21 08:17:00,
2013-06-21 03:18:00,68.0,57.9,17.72,NW,322,0.0,0.0,70,0.00,,---,0.00,VWS V14.01,2013-06-21 08:18:00,
2013-06-21 03:19:00,68.0,57.9,17.72,NW,322,0.0,0.0,70,0.00,,---,0.00,VWS V14.01,2013-06-21 08:19:00,
2013-06-21 03:22:00,68.0,57.9,17.72,NW,322,0.0,0.0,70,0.00,,---,0.00,VWS V14.01,2013-06-21 08:22:00,
2013-06-21 03:23:00,68.0,57.9,17.72,NW,322,0.0,0.0,70,0.00,,---,0.00,VWS V14.01,2013-06-21 08:23:00,
2013-06-21 03:24:00,68.0,57.9,17.72,NW,322,0.0,0.0,70,0.00,,---,0.00,VWS V14.01,2013-06-21 08:24:00,
2013-06-21 03:27:00,68.0,57.9,17.72,NW,322,0.0,0.0,70,0.00,,---,0.00,VWS V14.01,2013-06-21 08:27:00,
2013-06-21 03:28:00,68.0,57.9,17.72,NW,322,2.2,2.2,70,0.00,,---,0.00,VWS V14.01,2013-06-21 08:28:00,
2013-06-21 03:29:00,68.0,57.9,17.72,NW,322,2.2,2.2,70,0.00,,---,0.00,VWS V14.01,2013-06-21 08:29:00,
2013-06-21 03:30:00,68.0,57.9,17.72,NW,322,2.2,2.2,70,0.00,,---,0.00,VWS V14.01,2013-06-21 08:30:00,
2013-06-21 03:32:00,68.0,57.9,17.72,NW,322,2.2,2.2,70,0.00,,---,0.00,VWS V14.01,2013-06-21 08:32:00,
2013-06-21 03:33:00,68.0,57.9,17.72,NW,322,2.2,2.2,70,0.00,,---,0.00,VWS V14.01,2013-06-21 08:33:00,
2013-06-21 03:34:00,68.0,57.9,17.72,NW,322,0.0,2.2,70,0.00,,---,0.00,VWS V14.01,2013-06-21 08:34:00,
2013-06-21 03:35:00,68.0,57.9,17.72,NW,322,0.0,2.2,70,0.00,,---,0.00,VWS V14.01,2013-06-21 08:35:00,
2013-06-21 03:37:00,68.0,57.9,17.72,NW,322,0.0,0.0,70,0.00,,---,0.00,VWS V14.01,2013-06-21 08:37:00,
2013-06-21 03:38:00,68.0,57.9,17.72,NW,322,0.0,0.0,70,0.00,,---,0.00,VWS V14.01,2013-06-21 08:38:00,
2013-06-21 03:40:00,68.0,57.9,17.72,NW,322,2.2,2.2,70,0.00,,---,0.00,VWS V14.01,2013-06-21 08:40:00,
2013-06-21 03:43:00,68.0,58.3,17.72,NW,322,0.0,0.0,71,0.00,,---,0.00,VWS V14.01,2013-06-21 08:43:00,
2013-06-21 03:45:00,68.0,58.3,17.72,NW,321,0.0,0.0,71,0.00,,---,0.00,VWS V14.01,2013-06-21 08:45:00,
2013-06-21 03:48:00,68.0,58.3,17.72,NW,322,0.0,0.0,71,0.00,,---,0.00,VWS V14.01,2013-06-21 08:48:00,
2013-06-21 03:50:00,68.0,58.3,17.72,NW,322,2.2,2.2,71,0.00,,---,0.00,VWS V14.01,2013-06-21 08:50:00,
2013-06-21 03:53:00,68.0,58.3,17.72,NW,322,0.0,0.0,71,0.00,,---,0.00,VWS V14.01,2013-06-21 08:53:00,
2013-06-21 03:55:00,68.0,58.3,17.72,NW,322,0.0,0.0,71,0.00,,---,0.00,VWS V14.01,2013-06-21 08:55:00,
2013-06-21 03:58:00,68.0,58.3,17.72,NW,322,0.0,0.0,71,0.00,,---,0.00,VWS V14.01,2013-06-21 08:58:00,
2013-06-21 04:00:00,68.0,58.3,17.72,NW,322,0.0,0.0,71,0.00,,---,0.00,VWS V14.01,2013-06-21 09:00:00,
2013-06-21 04:03:00,67.8,58.5,17.72,NW,322,0.0,0.0,72,0.00,,---,0.00,VWS V14.01,2013-06-21 09:03:00,
2013-06-21 04:04:00,67.8,58.5,17.72,NW,322,0.0,0.0,72,0.00,,---,0.00,VWS V14.01,2013-06-21 09:04:00,
2013-06-21 04:06:00,67.8,58.5,17.72,NW,322,0.0,0.0,72,0.00,,---,0.00,VWS V14.01,2013-06-21 09:06:00,
2013-06-21 04:08:00,67.8,58.5,17.72,NW,322,0.0,0.0,72,0.00,,---,0.00,VWS V14.01,2013-06-21 09:08:00,
2013-06-21 04:09:00,67.8,58.5,17.72,NW,322,0.0,0.0,72,0.00,,---,0.00,VWS V14.01,2013-06-21 09:09:00,
2013-06-21 04:11:00,67.8,58.5,17.72,NW,322,0.0,0.0,72,0.00,,---,0.00,VWS V14.01,2013-06-21 09:11:00,
2013-06-21 04:13:00,67.8,58.5,17.72,NW,322,0.0,0.0,72,0.00,,---,0.00,VWS V14.01,2013-06-21 09:13:00,
2013-06-21 04:14:00,67.8,58.5,17.72,NW,322,0.0,0.0,72,0.00,,---,0.00,VWS V14.01,2013-06-21 09:14:00,
2013-06-21 04:16:00,67.8,58.5,17.72,NW,322,0.0,0.0,72,0.00,,---,0.00,VWS V14.01,2013-06-21 09:16:00,
2013-06-21 04:18:00,67.8,58.5,17.72,NW,322,0.0,0.0,72,0.00,,---,0.00,VWS V14.01,2013-06-21 09:18:00,
2013-06-21 04:19:00,67.8,58.5,17.72,NW,322,0.0,0.0,72,0.00,,---,0.00,VWS V14.01,2013-06-21 09:19:00,
2013-06-21 04:21:00,67.8,58.5,17.72,NW,322,0.0,0.0,72,0.00,,---,0.00,VWS V14.01,2013-06-21 09:21:00,
2013-06-21 04:23:00,67.8,58.5,17.72,NW,322,0.0,0.0,72,0.00,,---,0.00,VWS V14.01,2013-06-21 09:23:00,
2013-06-21 04:24:00,67.8,58.5,17.72,NW,322,0.0,0.0,72,0.00,,---,0.00,VWS V14.01,2013-06-21 09:24:00,
2013-06-21 04:25:00,67.8,58.5,17.72,NW,322,0.0,0.0,72,0.00,,---,0.00,VWS V14.01,2013-06-21 09:25:00,
2013-06-21 04:26:00,67.8,58.5,17.72,NW,322,0.0,0.0,72,0.00,,---,0.00,VWS V14.01,2013-06-21 09:26:00,
2013-06-21 04:27:00,67.8,58.5,17.72,NW,322,0.0,0.0,72,0.00,,---,0.00,VWS V14.01,2013-06-21 09:27:00,
2013-06-21 04:28:00,67.6,58.3,17.72,NW,322,0.0,0.0,72,0.00,,---,0.00,VWS V14.01,2013-06-21 09:28:00,
2013-06-21 04:29:00,67.6,58.3,17.72,NW,322,0.0,0.0,72,0.00,,---,0.00,VWS V14.01,2013-06-21 09:29:00,
2013-06-21 04:30:00,67.6,58.3,17.72,NW,322,0.0,0.0,72,0.00,,---,0.00,VWS V14.01,2013-06-21 09:30:00,
2013-06-21 04:31:00,67.6,58.3,17.72,NW,322,0.0,0.0,72,0.00,,---,0.00,VWS V14.01,2013-06-21 09:31:00,
2013-06-21 04:32:00,67.6,58.3,17.72,NW,322,0.0,0.0,72,0.00,,---,0.00,VWS V14.01,2013-06-21 09:32:00,
2013-06-21 04:33:00,67.6,58.3,17.72,NW,322,0.0,0.0,72,0.00,,---,0.00,VWS V14.01,2013-06-21 09:33:00,
2013-06-21 04:34:00,67.6,58.3,17.72,NW,322,0.0,0.0,72,0.00,,---,0.00,VWS V14.01,2013-06-21 09:34:00,
2013-06-21 04:35:00,67.6,58.3,17.72,NW,322,0.0,0.0,72,0.00,,---,0.00,VWS V14.01,2013-06-21 09:35:00,
2013-06-21 04:37:00,67.6,58.3,17.72,NW,321,0.0,0.0,72,0.00,,---,0.00,VWS V14.01,2013-06-21 09:37:00,
2013-06-21 04:38:00,67.6,58.3,17.72,NW,321,0.0,0.0,72,0.00,,---,0.00,VWS V14.01,2013-06-21 09:38:00,
2013-06-21 04:39:00,67.6,58.3,17.72,NW,321,0.0,0.0,72,0.00,,---,0.00,VWS V14.01,2013-06-21 09:39:00,
2013-06-21 04:40:00,67.6,58.3,17.72,NW,321,0.0,0.0,72,0.00,,---,0.00,VWS V14.01,2013-06-21 09:40:00,
2013-06-21 04:42:00,67.6,58.3,17.72,NW,321,0.0,0.0,72,0.00,,---,0.00,VWS V14.01,2013-06-21 09:42:00,
2013-06-21 04:43:00,67.6,58.3,17.72,NW,321,0.0,0.0,72,0.00,,---,0.00,VWS V14.01,2013-06-21 09:43:00,
2013-06-21 04:44:00,67.6,58.3,17.72,NW,322,0.0,0.0,72,0.00,,---,0.00,VWS V14.01,2013-06-21 09:44:00,
2013-06-21 04:45:00,67.6,58.3,17.72,NW,322,0.0,0.0,72,0.00,,---,0.00,VWS V14.01,2013-06-21 09:45:00,
2013-06-21 04:47:00,67.6,58.3,17.72,NW,322,0.0,0.0,72,0.00,,---,0.00,VWS V14.01,2013-06-21 09:47:00,
2013-06-21 04:48:00,67.6,58.3,17.72,NW,322,0.0,0.0,72,0.00,,---,0.00,VWS V14.01,2013-06-21 09:48:00,
2013-06-21 04:49:00,67.6,58.3,17.72,NW,322,0.0,0.0,72,0.00,,---,0.00,VWS V14.01,2013-06-21 09:49:00,
2013-06-21 04:50:00,67.6,58.3,17.72,NW,322,0.0,0.0,72,0.00,,---,0.00,VWS V14.01,2013-06-21 09:50:00,
2013-06-21 04:52:00,67.6,58.3,17.72,NW,322,0.0,0.0,72,0.00,,---,0.00,VWS V14.01,2013-06-21 09:52:00,
2013-06-21 04:53:00,67.6,58.3,17.72,NW,322,0.0,0.0,72,0.00,,---,0.00,VWS V14.01,2013-06-21 09:53:00,
2013-06-21 04:54:00,67.6,58.3,17.72,NW,322,0.0,0.0,72,0.00,,---,0.00,VWS V14.01,2013-06-21 09:54:00,
2013-06-21 04:55:00,67.6,58.3,17.72,NW,322,0.0,0.0,72,0.00,,---,0.00,VWS V14.01,2013-06-21 09:55:00,
2013-06-21 04:57:00,67.6,58.3,17.72,NW,322,0.0,0.0,72,0.00,,---,0.00,VWS V14.01,2013-06-21 09:57:00,
2013-06-21 04:58:00,67.6,58.3,17.72,NW,322,0.0,0.0,72,0.00,,---,0.00,VWS V14.01,2013-06-21 09:58:00,
2013-06-21 05:00:00,67.6,58.3,17.72,NW,322,0.0,0.0,72,0.00,,---,0.00,VWS V14.01,2013-06-21 10:00:00,
2013-06-21 05:02:00,67.6,58.3,17.72,NW,322,0.0,0.0,72,0.00,,---,0.00,VWS V14.01,2013-06-21 10:02:00,
2013-06-21 05:03:00,67.6,58.3,17.72,NW,322,0.0,0.0,72,0.00,,---,0.00,VWS V14.01,2013-06-21 10:03:00,
2013-06-21 05:05:00,67.6,58.3,17.72,NW,322,0.0,0.0,72,0.00,,---,0.00,VWS V14.01,2013-06-21 10:05:00,
2013-06-21 05:06:00,67.6,58.3,17.72,NW,322,0.0,0.0,72,0.00,,---,0.00,VWS V14.01,2013-06-21 10:06:00,
2013-06-21 05:07:00,67.6,58.3,17.72,NW,322,0.0,0.0,72,0.00,,---,0.00,VWS V14.01,2013-06-21 10:07:00,
2013-06-21 05:09:00,67.6,58.3,17.72,NW,322,0.0,0.0,72,0.00,,---,0.00,VWS V14.01,2013-06-21 10:09:00,
2013-06-21 05:10:00,67.6,58.3,17.72,NW,322,0.0,0.0,72,0.00,,---,0.00,VWS V14.01,2013-06-21 10:10:00,
2013-06-21 05:11:00,67.6,58.3,17.72,NW,322,0.0,0.0,72,0.00,,---,0.00,VWS V14.01,2013-06-21 10:11:00,
2013-06-21 05:12:00,67.6,58.3,17.72,NW,322,0.0,0.0,72,0.00,,---,0.00,VWS V14.01,2013-06-21 10:12:00,
2013-06-21 05:14:00,67.6,58.3,17.72,NW,322,0.0,0.0,72,0.00,,---,0.00,VWS V14.01,2013-06-21 10:14:00,
2013-06-21 05:15:00,67.6,58.3,17.72,NW,322,0.0,0.0,72,0.00,,---,0.00,VWS V14.01,2013-06-21 10:15:00,
2013-06-21 05:16:00,67.6,58.3,17.72,NW,322,0.0,0.0,72,0.00,,---,0.00,VWS V14.01,2013-06-21 10:16:00,
2013-06-21 05:17:00,67.6,58.3,17.72,NW,322,0.0,0.0,72,0.00,,---,0.00,VWS V14.01,2013-06-21 10:17:00,
2013-06-21 05:19:00,67.6,58.3,17.72,NW,322,0.0,0.0,72,0.00,,---,0.00,VWS V14.01,2013-06-21 10:19:00,
2013-06-21 05:20:00,67.6,58.3,17.72,NW,322,0.0,0.0,72,0.00,,---,0.00,VWS V14.01,2013-06-21 10:20:00,
2013-06-21 05:21:00,67.6,58.3,17.72,NW,322,0.0,0.0,72,0.00,,---,0.00,VWS V14.01,2013-06-21 10:21:00,
2013-06-21 05:23:00,67.6,58.3,17.72,NW,322,0.0,0.0,72,0.00,,---,0.00,VWS V14.01,2013-06-21 10:23:00,
2013-06-21 05:24:00,67.6,58.3,17.72,NW,322,0.0,0.0,72,0.00,,---,0.00,VWS V14.01,2013-06-21 10:24:00,
2013-06-21 05:25:00,67.6,58.3,17.72,NW,322,0.0,0.0,72,0.00,,---,0.00,VWS V14.01,2013-06-21 10:25:00,
2013-06-21 05:26:00,67.6,58.3,17.72,NW,322,0.0,0.0,72,0.00,,---,0.00,VWS V14.01,2013-06-21 10:26:00,
2013-06-21 05:28:00,67.5,58.1,17.72,NW,322,0.0,0.0,72,0.00,,---,0.00,VWS V14.01,2013-06-21 10:28:00,
2013-06-21 05:29:00,67.5,58.1,17.72,NW,322,0.0,0.0,72,0.00,,---,0.00,VWS V14.01,2013-06-21 10:29:00,
2013-06-21 05:31:00,67.6,58.7,17.72,NW,322,0.0,0.0,73,0.00,,---,0.00,VWS V14.01,2013-06-21 10:31:00,
2013-06-21 05:32:00,67.6,58.7,17.72,NW,322,0.0,0.0,73,0.00,,---,0.00,VWS V14.01,2013-06-21 10:32:00,
2013-06-21 05:33:00,67.6,58.7,17.72,NW,322,0.0,0.0,73,0.00,,---,0.00,VWS V14.01,2013-06-21 10:33:00,
2013-06-21 05:34:00,67.6,58.7,17.72,NW,322,0.0,0.0,73,0.00,,---,0.00,VWS V14.01,2013-06-21 10:34:00,
2013-06-21 05:35:00,67.6,58.7,17.72,NW,322,0.0,0.0,73,0.00,,---,0.00,VWS V14.01,2013-06-21 10:35:00,
2013-06-21 05:36:00,67.6,58.7,17.72,NW,322,0.0,0.0,73,0.00,,---,0.00,VWS V14.01,2013-06-21 10:36:00,
2013-06-21 05:37:00,67.6,58.7,17.72,NW,322,0.0,0.0,73,0.00,,---,0.00,VWS V14.01,2013-06-21 10:37:00,
2013-06-21 05:39:00,67.6,58.7,17.72,NW,322,0.0,0.0,73,0.00,,---,0.00,VWS V14.01,2013-06-21 10:39:00,
2013-06-21 05:40:00,67.6,58.7,17.72,NW,322,0.0,0.0,73,0.00,,---,0.00,VWS V14.01,2013-06-21 10:40:00,
2013-06-21 05:41:00,67.6,58.7,17.72,NW,322,0.0,0.0,73,0.00,,---,0.00,VWS V14.01,2013-06-21 10:41:00,
2013-06-21 05:42:00,67.6,58.7,17.72,NW,322,0.0,0.0,73,0.00,,---,0.00,VWS V14.01,2013-06-21 10:42:00,
2013-06-21 05:44:00,67.6,58.7,17.72,NW,322,0.0,0.0,73,0.00,,---,0.00,VWS V14.01,2013-06-21 10:44:00,
2013-06-21 05:45:00,67.6,58.7,17.72,NW,322,0.0,0.0,73,0.00,,---,0.00,VWS V14.01,2013-06-21 10:45:00,
2013-06-21 05:46:00,67.6,58.7,17.72,NW,322,0.0,0.0,73,0.00,,---,0.00,VWS V14.01,2013-06-21 10:46:00,
2013-06-21 05:47:00,67.6,58.7,17.72,NW,322,0.0,0.0,73,0.00,,---,0.00,VWS V14.01,2013-06-21 10:47:00,
2013-06-21 05:49:00,67.5,58.5,17.72,NW,322,0.0,0.0,73,0.00,,---,0.00,VWS V14.01,2013-06-21 10:49:00,
2013-06-21 05:50:00,67.5,58.5,17.72,NW,322,0.0,0.0,73,0.00,,---,0.00,VWS V14.01,2013-06-21 10:50:00,
2013-06-21 05:51:00,67.5,58.9,17.72,NW,322,0.0,0.0,74,0.00,,---,0.00,VWS V14.01,2013-06-21 10:51:00,
2013-06-21 05:52:00,67.5,58.9,17.72,NW,322,0.0,0.0,74,0.00,,---,0.00,VWS V14.01,2013-06-21 10:52:00,
2013-06-21 05:54:00,67.5,58.9,17.72,NW,322,0.0,0.0,74,0.00,,---,0.00,VWS V14.01,2013-06-21 10:54:00,
2013-06-21 05:55:00,67.5,58.9,17.72,NW,322,0.0,0.0,74,0.00,,---,0.00,VWS V14.01,2013-06-21 10:55:00,
2013-06-21 05:56:00,67.5,58.9,17.72,NW,322,0.0,0.0,74,0.00,,---,0.00,VWS V14.01,2013-06-21 10:56:00,
2013-06-21 05:57:00,67.5,58.9,17.72,NW,322,0.0,0.0,74,0.00,,---,0.00,VWS V14.01,2013-06-21 10:57:00,
2013-06-21 05:59:00,67.5,58.9,17.72,NW,322,0.0,0.0,74,0.00,,---,0.00,VWS V14.01,2013-06-21 10:59:00,
2013-06-21 06:00:00,67.5,58.9,17.72,NW,322,0.0,0.0,74,0.00,,---,0.00,VWS V14.01,2013-06-21 11:00:00,
2013-06-21 06:01:00,67.5,58.9,17.72,NW,322,0.0,0.0,74,0.00,,---,0.00,VWS V14.01,2013-06-21 11:01:00,
2013-06-21 06:02:00,67.5,58.9,17.72,NW,322,0.0,0.0,74,0.00,,---,0.00,VWS V14.01,2013-06-21 11:02:00,
2013-06-21 06:04:00,67.6,59.4,17.72,NW,322,0.0,0.0,75,0.00,,---,0.00,VWS V14.01,2013-06-21 11:04:00,
2013-06-21 06:05:00,67.6,59.4,17.72,NW,322,0.0,0.0,75,0.00,,---,0.00,VWS V14.01,2013-06-21 11:05:00,
2013-06-21 06:06:00,67.6,59.4,17.72,NW,322,0.0,0.0,75,0.00,,---,0.00,VWS V14.01,2013-06-21 11:06:00,
2013-06-21 06:07:00,67.6,59.4,17.72,NW,322,0.0,0.0,75,0.00,,---,0.00,VWS V14.01,2013-06-21 11:07:00,
2013-06-21 06:09:00,67.6,59.4,17.72,NW,322,0.0,0.0,75,0.00,,---,0.00,VWS V14.01,2013-06-21 11:09:00,
2013-06-21 06:10:00,67.6,59.4,17.72,NW,322,0.0,0.0,75,0.00,,---,0.00,VWS V14.01,2013-06-21 11:10:00,
2013-06-21 06:11:00,67.6,59.4,17.72,NW,322,0.0,0.0,75,0.00,,---,0.00,VWS V14.01,2013-06-21 11:11:00,
2013-06-21 06:12:00,67.6,59.4,17.72,NW,322,0.0,0.0,75,0.00,,---,0.00,VWS V14.01,2013-06-21 11:12:00,
2013-06-21 06:14:00,67.6,59.4,17.72,NW,322,0.0,0.0,75,0.00,,---,0.00,VWS V14.01,2013-06-21 11:14:00,
2013-06-21 06:15:00,67.6,59.4,17.72,NW,322,0.0,0.0,75,0.00,,---,0.00,VWS V14.01,2013-06-21 11:15:00,
2013-06-21 06:16:00,67.6,59.4,17.72,NW,322,0.0,0.0,75,0.00,,---,0.00,VWS V14.01,2013-06-21 11:16:00,
2013-06-21 06:17:00,67.6,59.4,17.72,NW,322,0.0,0.0,75,0.00,,---,0.00,VWS V14.01,2013-06-21 11:17:00,
2013-06-21 06:19:00,67.8,60.0,17.72,NW,322,0.0,0.0,76,0.00,,---,0.00,VWS V14.01,2013-06-21 11:19:00,
2013-06-21 06:20:00,67.8,60.0,17.72,NW,322,0.0,0.0,76,0.00,,---,0.00,VWS V14.01,2013-06-21 11:20:00,
2013-06-21 06:21:00,67.8,60.0,17.72,NW,322,0.0,0.0,76,0.00,,---,0.00,VWS V14.01,2013-06-21 11:21:00,
2013-06-21 06:22:00,67.8,60.0,17.72,NW,322,0.0,0.0,76,0.00,,---,0.00,VWS V14.01,2013-06-21 11:22:00,
2013-06-21 06:24:00,67.8,60.0,17.72,NW,321,0.0,0.0,76,0.00,,---,0.00,VWS V14.01,2013-06-21 11:24:00,
2013-06-21 06:25:00,67.8,60.0,17.72,NW,321,0.0,0.0,76,0.00,,---,0.00,VWS V14.01,2013-06-21 11:25:00,
2013-06-21 06:26:00,67.8,60.0,17.72,NW,321,0.0,0.0,76,0.00,,---,0.00,VWS V14.01,2013-06-21 11:26:00,
2013-06-21 06:27:00,67.8,60.0,17.72,NW,321,0.0,0.0,76,0.00,,---,0.00,VWS V14.01,2013-06-21 11:27:00,
2013-06-21 06:29:00,68.2,60.3,17.72,NW,322,0.0,0.0,76,0.00,,---,0.00,VWS V14.01,2013-06-21 11:29:00,
2013-06-21 06:30:00,68.2,60.3,17.72,NW,322,0.0,0.0,76,0.00,,---,0.00,VWS V14.01,2013-06-21 11:30:00,
2013-06-21 06:31:00,68.2,60.3,17.72,NW,322,0.0,0.0,76,0.00,,---,0.00,VWS V14.01,2013-06-21 11:31:00,
2013-06-21 06:32:00,68.4,60.9,17.72,NW,322,0.0,0.0,77,0.00,,---,0.00,VWS V14.01,2013-06-21 11:32:00,
2013-06-21 06:34:00,68.4,60.9,17.72,NW,322,0.0,0.0,77,0.00,,---,0.00,VWS V14.01,2013-06-21 11:34:00,
2013-06-21 06:35:00,68.4,60.9,17.72,NW,322,0.0,0.0,77,0.00,,---,0.00,VWS V14.01,2013-06-21 11:35:00,
2013-06-21 06:36:00,68.4,60.9,17.72,NW,322,0.0,0.0,77,0.00,,---,0.00,VWS V14.01,2013-06-21 11:36:00,
2013-06-21 06:38:00,68.4,60.9,17.72,NW,322,0.0,0.0,77,0.00,,---,0.00,VWS V14.01,2013-06-21 11:38:00,
2013-06-21 06:40:00,68.4,60.9,17.72,NW,322,0.0,0.0,77,0.00,,---,0.00,VWS V14.01,2013-06-21 11:40:00,
2013-06-21 06:41:00,68.4,60.9,17.72,NW,322,0.0,0.0,77,0.00,,---,0.00,VWS V14.01,2013-06-21 11:41:00,
2013-06-21 06:43:00,68.4,60.9,17.72,NW,322,0.0,0.0,77,0.00,,---,0.00,VWS V14.01,2013-06-21 11:43:00,
2013-06-21 06:45:00,68.4,60.9,17.72,NW,322,0.0,0.0,77,0.00,,---,0.00,VWS V14.01,2013-06-21 11:45:00,
2013-06-21 06:46:00,68.4,60.9,17.72,NW,322,0.0,0.0,77,0.00,,---,0.00,VWS V14.01,2013-06-21 11:46:00,
2013-06-21 06:48:00,69.1,61.6,17.72,NW,322,0.0,0.0,77,0.00,,---,0.00,VWS V14.01,2013-06-21 11:48:00,
2013-06-21 06:50:00,69.1,61.6,17.72,NW,322,0.0,0.0,77,0.00,,---,0.00,VWS V14.01,2013-06-21 11:50:00,
2013-06-21 06:51:00,69.1,61.6,17.72,NW,322,0.0,0.0,77,0.00,,---,0.00,VWS V14.01,2013-06-21 11:51:00,
2013-06-21 06:53:00,69.1,61.6,17.72,NW,322,0.0,0.0,77,0.00,,---,0.00,VWS V14.01,2013-06-21 11:53:00,
2013-06-21 06:55:00,69.1,61.6,17.72,NW,322,0.0,0.0,77,0.00,,---,0.00,VWS V14.01,2013-06-21 11:55:00,
2013-06-21 06:56:00,69.8,62.3,17.72,NW,322,0.0,0.0,77,0.00,,---,0.00,VWS V14.01,2013-06-21 11:56:00,
2013-06-21 06:57:00,70.0,62.5,17.72,NW,321,0.0,0.0,77,0.00,,---,0.00,VWS V14.01,2013-06-21 11:57:00,
2013-06-21 06:58:00,70.0,62.5,17.72,NW,321,0.0,0.0,77,0.00,,---,0.00,VWS V14.01,2013-06-21 11:58:00,
2013-06-21 07:00:00,70.0,62.5,17.72,NW,322,0.0,0.0,77,0.00,,---,0.00,VWS V14.01,2013-06-21 12:00:00,
2013-06-21 07:01:00,70.0,62.5,17.72,NW,322,0.0,0.0,77,0.00,,---,0.00,VWS V14.01,2013-06-21 12:01:00,
2013-06-21 07:02:00,70.0,62.5,17.72,NW,322,0.0,0.0,77,0.00,,---,0.00,VWS V14.01,2013-06-21 12:02:00,
2013-06-21 07:03:00,70.0,62.5,17.72,NW,322,0.0,0.0,77,0.00,,---,0.00,VWS V14.01,2013-06-21 12:03:00,
2013-06-21 07:05:00,70.7,63.1,17.72,NW,322,0.0,0.0,77,0.00,,---,0.00,VWS V14.01,2013-06-21 12:05:00,
2013-06-21 07:07:00,70.7,63.1,17.72,NW,322,0.0,0.0,77,0.00,,---,0.00,VWS V14.01,2013-06-21 12:07:00,
2013-06-21 07:08:00,70.7,63.1,17.72,NW,321,0.0,0.0,77,0.00,,---,0.00,VWS V14.01,2013-06-21 12:08:00,
2013-06-21 07:10:00,70.7,63.1,17.72,NW,321,0.0,0.0,77,0.00,,---,0.00,VWS V14.01,2013-06-21 12:10:00,
2013-06-21 07:12:00,70.7,63.1,17.72,NW,321,0.0,0.0,77,0.00,,---,0.00,VWS V14.01,2013-06-21 12:12:00,
2013-06-21 07:13:00,72.0,64.0,17.72,NW,321,0.0,0.0,76,0.00,,---,0.00,VWS V14.01,2013-06-21 12:13:00,
2013-06-21 07:14:00,72.1,64.2,17.72,NW,321,0.0,0.0,76,0.00,,---,0.00,VWS V14.01,2013-06-21 12:14:00,
2013-06-21 07:15:00,72.1,64.2,17.72,NW,321,0.0,0.0,76,0.00,,---,0.00,VWS V14.01,2013-06-21 12:15:00,
2013-06-21 07:17:00,72.1,64.2,17.72,NW,322,0.0,0.0,76,0.00,,---,0.00,VWS V14.01,2013-06-21 12:17:00,
2013-06-21 07:18:00,72.1,64.2,17.72,South,185,0.0,0.0,76,0.00,,---,0.00,VWS V14.01,2013-06-21 12:18:00,
2013-06-21 07:19:00,72.1,64.2,17.72,South,185,0.0,0.0,76,0.00,,---,0.00,VWS V14.01,2013-06-21 12:19:00,
2013-06-21 07:20:00,72.1,64.2,17.72,South,185,0.0,0.0,76,0.00,,---,0.00,VWS V14.01,2013-06-21 12:20:00,
2013-06-21 07:22:00,72.7,62.3,17.72,South,185,0.0,0.0,70,0.00,,---,0.00,VWS V14.01,2013-06-21 12:22:00,
2013-06-21 07:23:00,72.7,62.3,17.72,South,185,0.0,0.0,70,0.00,,---,0.00,VWS V14.01,2013-06-21 12:23:00,
2013-06-21 07:24:00,72.7,62.3,17.72,South,185,0.0,0.0,70,0.00,,---,0.00,VWS V14.01,2013-06-21 12:24:00,
2013-06-21 07:25:00,72.7,61.1,17.72,SSE,162,0.0,0.0,67,0.00,,---,0.00,VWS V14.01,2013-06-21 12:25:00,
2013-06-21 07:27:00,72.7,61.1,17.72,SSE,162,0.0,0.0,67,0.00,,---,0.00,VWS V14.01,2013-06-21 12:27:00,
2013-06-21 07:28:00,72.7,61.1,17.72,SSE,162,0.0,0.0,67,0.00,,---,0.00,VWS V14.01,2013-06-21 12:28:00,
2013-06-21 07:29:00,72.7,61.1,17.72,SE,133,4.0,4.0,67,0.00,,---,0.00,VWS V14.01,2013-06-21 12:29:00,
2013-06-21 07:30:00,72.7,61.1,17.72,SE,133,4.0,4.0,67,0.00,,---,0.00,VWS V14.01,2013-06-21 12:30:00,
2013-06-21 07:33:00,74.3,60.0,17.72,South,173,4.5,4.5,61,0.00,,---,0.00,VWS V14.01,2013-06-21 12:33:00,
2013-06-21 07:34:00,74.5,60.2,17.72,South,173,4.5,4.5,61,0.00,,---,0.00,VWS V14.01,2013-06-21 12:34:00,
2013-06-21 07:37:00,74.5,60.2,17.72,SSW,208,2.7,2.7,61,0.00,,---,0.00,VWS V14.01,2013-06-21 12:37:00,
2013-06-21 07:38:00,74.5,60.2,17.72,East,92,2.2,2.7,61,0.00,,---,0.00,VWS V14.01,2013-06-21 12:38:00,
2013-06-21 07:39:00,74.5,60.2,17.72,SSE,162,0.0,2.2,61,0.00,,---,0.00,VWS V14.01,2013-06-21 12:39:00,
2013-06-21 07:42:00,75.6,57.8,17.72,SSE,158,0.0,0.0,54,0.00,,---,0.00,VWS V14.01,2013-06-21 12:42:00,
2013-06-21 07:43:00,75.6,57.8,17.72,SSE,155,2.7,2.7,54,0.00,,---,0.00,VWS V14.01,2013-06-21 12:43:00,
2013-06-21 07:44:00,75.6,57.8,17.72,SSE,155,2.7,2.7,54,0.00,,---,0.00,VWS V14.01,2013-06-21 12:44:00,
2013-06-21 07:45:00,75.7,55.2,17.72,SSE,155,2.7,2.7,49,0.00,,---,0.00,VWS V14.01,2013-06-21 12:45:00,
2013-06-21 07:47:00,75.7,55.2,17.72,SW,231,0.0,2.2,49,0.00,,---,0.00,VWS V14.01,2013-06-21 12:47:00,
2013-06-21 07:48:00,76.1,53.8,17.72,North,0,3.1,3.1,46,0.00,,---,0.00,VWS V14.01,2013-06-21 12:48:00,
2013-06-21 07:49:00,76.1,53.8,17.72,North,0,3.1,3.1,46,0.00,,---,0.00,VWS V14.01,2013-06-21 12:49:00,
2013-06-21 07:50:00,76.3,52.8,17.72,North,0,3.1,3.1,44,0.00,,---,0.00,VWS V14.01,2013-06-21 12:50:00,
2013-06-21 07:52:00,76.5,53.0,17.72,SE,139,2.2,2.2,44,0.00,,---,0.00,VWS V14.01,2013-06-21 12:52:00,
2013-06-21 07:54:00,76.5,53.0,17.72,SSE,149,0.0,2.2,44,0.00,,---,0.00,VWS V14.01,2013-06-21 12:54:00,
2013-06-21 07:55:00,76.5,53.0,17.72,SSE,149,0.0,0.0,44,0.00,,---,0.00,VWS V14.01,2013-06-21 12:55:00,
2013-06-21 07:58:00,76.5,53.0,17.72,SSE,149,0.0,0.0,44,0.00,,---,0.00,VWS V14.01,2013-06-21 12:58:00,
2013-06-21 07:59:00,76.5,53.0,17.72,SSE,149,0.0,0.0,44,0.00,,---,0.00,VWS V14.01,2013-06-21 12:59:00,
2013-06-21 08:00:00,76.5,53.0,17.72,South,170,3.1,3.1,44,0.00,,---,0.00,VWS V14.01,2013-06-21 13:00:00,
2013-06-21 08:03:00,77.5,52.7,17.72,ENE,59,0.0,0.0,42,0.00,,---,0.00,VWS V14.01,2013-06-21 13:03:00,
2013-06-21 08:04:00,77.5,52.7,17.72,ENE,59,0.0,0.0,42,0.00,,---,0.00,VWS V14.01,2013-06-21 13:04:00,
2013-06-21 08:05:00,77.5,52.7,17.72,ENE,59,0.0,0.0,42,0.00,,---,0.00,VWS V14.01,2013-06-21 13:05:00,
2013-06-21 08:08:00,77.7,52.2,17.72,SSE,147,2.2,2.2,41,0.00,,---,0.00,VWS V14.01,2013-06-21 13:08:00,
2013-06-21 08:09:00,78.1,53.2,17.72,SSE,147,2.2,2.2,42,0.00,,---,0.00,VWS V14.01,2013-06-21 13:09:00,
2013-06-21 08:10:00,78.1,53.2,17.72,SSE,147,2.2,2.2,42,0.00,,---,0.00,VWS V14.01,2013-06-21 13:10:00,
2013-06-21 08:13:00,78.4,52.8,17.72,ENE,75,0.0,0.0,41,0.00,,---,0.00,VWS V14.01,2013-06-21 13:13:00,
2013-06-21 08:14:00,78.4,52.8,17.72,ENE,75,0.0,0.0,41,0.00,,---,0.00,VWS V14.01,2013-06-21 13:14:00,
2013-06-21 08:15:00,78.8,51.1,17.72,ENE,75,0.0,0.0,38,0.00,,---,0.00,VWS V14.01,2013-06-21 13:15:00,
2013-06-21 08:18:00,79.0,50.5,17.72,SSE,148,2.7,2.7,37,0.00,,---,0.00,VWS V14.01,2013-06-21 13:18:00,
2013-06-21 08:19:00,79.0,50.5,17.72,SE,132,3.6,3.6,37,0.00,,---,0.00,VWS V14.01,2013-06-21 13:19:00,
2013-06-21 08:20:00,79.0,50.5,17.72,SE,132,3.6,3.6,37,0.00,,---,0.00,VWS V14.01,2013-06-21 13:20:00,
2013-06-21 08:21:00,79.0,50.5,17.72,South,173,4.9,8.1,37,0.00,,---,0.00,VWS V14.01,2013-06-21 13:21:00,
2013-06-21 08:23:00,78.6,47.1,17.72,SSE,160,3.6,3.6,33,0.00,,---,0.00,VWS V14.01,2013-06-21 13:23:00,
2013-06-21 08:24:00,78.6,47.1,17.72,SSE,160,3.6,3.6,33,0.00,,---,0.00,VWS V14.01,2013-06-21 13:24:00,
2013-06-21 08:25:00,78.6,47.1,17.72,SSE,160,3.6,3.6,33,0.00,,---,0.00,VWS V14.01,2013-06-21 13:25:00,
2013-06-21 08:26:00,78.6,47.1,17.72,SSE,160,3.6,3.6,33,0.00,,---,0.00,VWS V14.01,2013-06-21 13:26:00,
2013-06-21 08:28:00,78.6,49.5,17.72,South,175,2.7,2.7,36,0.00,,---,0.00,VWS V14.01,2013-06-21 13:28:00,
2013-06-21 08:29:00,78.6,49.5,17.72,South,175,2.7,2.7,36,0.00,,---,0.00,VWS V14.01,2013-06-21 13:29:00,
2013-06-21 08:30:00,78.6,49.5,17.72,South,175,2.7,2.7,36,0.00,,---,0.00,VWS V14.01,2013-06-21 13:30:00,
2013-06-21 08:31:00,78.3,49.1,17.72,South,175,2.7,2.7,36,0.00,,---,0.00,VWS V14.01,2013-06-21 13:31:00,
2013-06-21 08:34:00,78.3,49.1,17.72,SSE,163,2.2,2.2,36,0.00,,---,0.00,VWS V14.01,2013-06-21 13:34:00,
2013-06-21 08:35:00,78.3,49.1,17.72,SSE,162,2.7,2.7,36,0.00,,---,0.00,VWS V14.01,2013-06-21 13:35:00,
2013-06-21 08:37:00,78.3,49.1,17.72,SSE,162,2.7,2.7,36,0.00,,---,0.00,VWS V14.01,2013-06-21 13:37:00,
2013-06-21 08:39:00,78.3,49.1,17.72,SSE,162,2.7,2.7,36,0.00,,---,0.00,VWS V14.01,2013-06-21 13:39:00,
2013-06-21 08:40:00,77.0,48.8,17.72,SSE,162,2.7,2.7,37,0.00,,---,0.00,VWS V14.01,2013-06-21 13:40:00,
2013-06-21 08:42:00,77.0,48.8,17.72,SE,129,0.0,2.7,37,0.00,,---,0.00,VWS V14.01,2013-06-21 13:42:00,
2013-06-21 08:44:00,76.6,49.2,17.72,SSW,192,2.2,2.2,38,0.00,,---,0.00,VWS V14.01,2013-06-21 13:44:00,
2013-06-21 08:45:00,76.6,49.2,17.72,SSW,192,2.2,2.2,38,0.00,,---,0.00,VWS V14.01,2013-06-21 13:45:00,
2013-06-21 08:47:00,76.6,49.2,17.72,SE,129,2.2,2.2,38,0.00,,---,0.00,VWS V14.01,2013-06-21 13:47:00,
2013-06-21 08:49:00,76.5,50.4,17.72,SE,129,0.0,2.2,40,0.00,,---,0.00,VWS V14.01,2013-06-21 13:49:00,
2013-06-21 08:50:00,76.5,50.4,17.72,SE,129,0.0,0.0,40,0.00,,---,0.00,VWS V14.01,2013-06-21 13:50:00,
2013-06-21 08:51:00,76.6,51.2,17.72,SE,129,0.0,0.0,41,0.00,,---,0.00,VWS V14.01,2013-06-21 13:51:00,
2013-06-21 08:52:00,76.6,51.2,17.72,SE,129,0.0,0.0,41,0.00,,---,0.00,VWS V14.01,2013-06-21 13:52:00,
2013-06-21 08:54:00,76.6,51.2,17.72,SE,129,0.0,0.0,41,0.00,,---,0.00,VWS V14.01,2013-06-21 13:54:00,
2013-06-21 08:55:00,76.6,51.2,17.72,SSE,156,0.0,0.0,41,0.00,,---,0.00,VWS V14.01,2013-06-21 13:55:00,
2013-06-21 08:56:00,76.6,51.2,17.72,SSE,156,0.0,0.0,41,0.00,,---,0.00,VWS V14.01,2013-06-21 13:56:00,
2013-06-21 08:57:00,76.6,51.2,17.72,SSE,156,0.0,0.0,41,0.00,,---,0.00,VWS V14.01,2013-06-21 13:57:00,
2013-06-21 08:59:00,76.6,51.2,17.72,SSE,156,0.0,0.0,41,0.00,,---,0.00,VWS V14.01,2013-06-21 13:59:00,
2013-06-21 09:00:00,76.6,51.2,17.72,SE,128,2.7,2.7,41,0.00,,---,0.00,VWS V14.01,2013-06-21 14:00:00,
2013-06-21 09:01:00,76.6,51.2,17.72,SE,128,2.7,2.7,41,0.00,,---,0.00,VWS V14.01,2013-06-21 14:01:00,
2013-06-21 09:02:00,76.6,51.2,17.72,SE,128,2.7,2.7,41,0.00,,---,0.00,VWS V14.01,2013-06-21 14:02:00,
2013-06-21 09:05:00,76.8,50.0,17.72,SSE,152,2.2,2.7,39,0.00,,---,0.00,VWS V14.01,2013-06-21 14:05:00,
2013-06-21 09:06:00,76.8,50.0,17.72,SSE,152,2.2,2.2,39,0.00,,---,0.00,VWS V14.01,2013-06-21 14:06:00,
2013-06-21 09:07:00,76.8,50.0,17.72,SSE,152,2.2,2.2,39,0.00,,---,0.00,VWS V14.01,2013-06-21 14:07:00,
2013-06-21 09:11:00,76.8,51.4,17.72,South,180,3.6,3.6,41,0.00,,---,0.00,VWS V14.01,2013-06-21 14:11:00,
2013-06-21 09:12:00,76.8,50.0,17.72,SSE,160,4.0,4.0,39,0.00,,---,0.00,VWS V14.01,2013-06-21 14:12:00,
2013-06-21 09:13:00,76.8,50.0,17.72,SE,124,2.2,4.0,39,0.00,,---,0.00,VWS V14.01,2013-06-21 14:13:00,
2013-06-21 09:16:00,76.8,50.0,17.72,SE,124,2.2,2.2,39,0.00,,---,0.00,VWS V14.01,2013-06-21 14:16:00,
2013-06-21 09:17:00,76.8,50.0,17.72,ESE,119,2.2,2.2,39,0.00,,---,0.00,VWS V14.01,2013-06-21 14:17:00,
2013-06-21 09:18:00,77.2,51.7,17.72,ESE,119,2.2,2.2,41,0.00,,---,0.00,VWS V14.01,2013-06-21 14:18:00,
2013-06-21 09:21:00,77.4,51.8,17.72,ESE,119,2.2,2.2,41,0.00,,---,0.00,VWS V14.01,2013-06-21 14:21:00,
2013-06-21 09:22:00,77.4,51.8,17.72,ESE,119,2.2,2.2,41,0.00,,---,0.00,VWS V14.01,2013-06-21 14:22:00,
2013-06-21 09:23:00,77.4,51.8,17.72,ESE,119,2.2,2.2,41,0.00,,---,0.00,VWS V14.01,2013-06-21 14:23:00,
2013-06-21 09:27:00,77.9,52.3,17.72,South,188,3.1,3.1,41,0.00,,---,0.00,VWS V14.01,2013-06-21 14:27:00,
2013-06-21 09:28:00,77.9,52.3,17.72,South,188,3.1,3.1,41,0.00,,---,0.00,VWS V14.01,2013-06-21 14:28:00,
2013-06-21 09:29:00,77.9,52.3,17.72,South,188,3.1,3.1,41,0.00,,---,0.00,VWS V14.01,2013-06-21 14:29:00,
2013-06-21 09:32:00,78.3,51.3,17.72,SE,144,2.2,2.2,39,0.00,,---,0.00,VWS V14.01,2013-06-21 14:32:00,
2013-06-21 09:33:00,78.4,51.5,17.72,SE,144,2.2,2.2,39,0.00,,---,0.00,VWS V14.01,2013-06-21 14:33:00,
2013-06-21 09:34:00,78.4,50.8,17.72,SE,144,2.2,2.2,38,0.00,,---,0.00,VWS V14.01,2013-06-21 14:34:00,
2013-06-21 09:37:00,78.4,50.8,17.72,South,183,3.1,3.6,38,0.00,,---,0.00,VWS V14.01,2013-06-21 14:37:00,
2013-06-21 09:38:00,78.4,50.8,17.72,SSE,159,2.7,2.7,38,0.00,,---,0.00,VWS V14.01,2013-06-21 14:38:00,
2013-06-21 09:39:00,78.4,50.8,17.72,SSE,159,2.7,2.7,38,0.00,,---,0.00,VWS V14.01,2013-06-21 14:39:00,
2013-06-21 09:42:00,78.4,49.3,17.72,SSE,159,3.1,3.1,36,0.00,,---,0.00,VWS V14.01,2013-06-21 14:42:00,
2013-06-21 09:43:00,78.4,49.3,17.72,SSE,160,2.7,2.7,36,0.00,,---,0.00,VWS V14.01,2013-06-21 14:43:00,
2013-06-21 09:44:00,78.4,49.3,17.72,SSE,160,2.7,2.7,36,0.00,,---,0.00,VWS V14.01,2013-06-21 14:44:00,
2013-06-21 09:47:00,78.4,49.3,17.72,SSE,160,0.0,0.0,36,0.00,,---,0.00,VWS V14.01,2013-06-21 14:47:00,
2013-06-21 09:49:00,78.4,49.3,17.72,SE,138,2.2,2.2,36,0.00,,---,0.00,VWS V14.01,2013-06-21 14:49:00,
2013-06-21 09:52:00,79.2,50.7,17.72,SE,143,2.2,2.7,37,0.00,,---,0.00,VWS V14.01,2013-06-21 14:52:00,
2013-06-21 09:54:00,79.2,50.7,17.72,ESE,122,2.2,2.2,37,0.00,,---,0.00,VWS V14.01,2013-06-21 14:54:00,
2013-06-21 09:57:00,79.2,50.7,17.72,South,181,0.0,0.0,37,0.00,,---,0.00,VWS V14.01,2013-06-21 14:57:00,
2013-06-21 09:59:00,79.7,51.2,17.72,South,181,0.0,0.0,37,0.00,,---,0.00,VWS V14.01,2013-06-21 14:59:00,
2013-06-21 10:02:00,79.5,47.9,17.72,South,184,5.4,5.4,33,0.00,,---,0.00,VWS V14.01,2013-06-21 15:02:00,
2013-06-21 10:04:00,79.5,47.9,17.72,SE,136,0.0,0.0,33,0.00,,---,0.00,VWS V14.01,2013-06-21 15:04:00,
2013-06-21 10:05:00,79.5,48.7,17.72,SE,136,0.0,0.0,34,0.00,,---,0.00,VWS V14.01,2013-06-21 15:05:00,
2013-06-21 10:07:00,79.7,49.7,17.72,SE,136,0.0,0.0,35,0.00,,---,0.00,VWS V14.01,2013-06-21 15:07:00,
2013-06-21 10:08:00,79.7,49.7,17.72,SE,136,0.0,0.0,35,0.00,,---,0.00,VWS V14.01,2013-06-21 15:08:00,
2013-06-21 10:10:00,79.7,49.7,17.72,SE,141,2.7,2.7,35,0.00,,---,0.00,VWS V14.01,2013-06-21 15:10:00,
2013-06-21 10:11:00,79.7,49.7,17.72,SE,141,2.7,2.7,35,0.00,,---,0.00,VWS V14.01,2013-06-21 15:11:00,
2013-06-21 10:13:00,79.7,49.7,17.72,South,174,4.9,4.9,35,0.00,,---,0.00,VWS V14.01,2013-06-21 15:13:00,
2013-06-21 10:15:00,81.0,49.2,17.72,South,174,4.9,4.9,33,0.00,,---,0.00,VWS V14.01,2013-06-21 15:15:00,
2013-06-21 10:16:00,81.0,49.2,17.72,South,174,4.9,4.9,33,0.00,,---,0.00,VWS V14.01,2013-06-21 15:16:00,
2013-06-21 10:18:00,81.1,49.3,17.72,South,185,2.7,2.7,33,0.00,,---,0.00,VWS V14.01,2013-06-21 15:18:00,
2013-06-21 10:20:00,81.1,49.3,17.72,South,177,3.1,3.1,33,0.00,,---,0.00,VWS V14.01,2013-06-21 15:20:00,
2013-06-21 10:21:00,81.1,49.3,17.72,South,177,3.1,3.1,33,0.00,,---,0.00,VWS V14.01,2013-06-21 15:21:00,
2013-06-21 10:23:00,81.1,49.3,17.72,SSE,157,4.0,4.0,33,0.00,,---,0.00,VWS V14.01,2013-06-21 15:23:00,
2013-06-21 10:25:00,81.3,47.0,17.72,SSE,165,5.8,5.8,30,0.00,,---,0.00,VWS V14.01,2013-06-21 15:25:00,
2013-06-21 10:26:00,81.3,47.0,17.72,SSE,165,5.8,5.8,30,0.00,,---,0.00,VWS V14.01,2013-06-21 15:26:00,
2013-06-21 10:27:00,81.3,47.8,17.72,SSE,165,5.8,5.8,31,0.00,,---,0.00,VWS V14.01,2013-06-21 15:27:00,
2013-06-21 10:28:00,81.5,48.0,17.72,SSE,165,5.8,5.8,31,0.00,,---,0.00,VWS V14.01,2013-06-21 15:28:00,
2013-06-21 10:31:00,81.5,48.0,17.72,South,175,3.1,3.1,31,0.00,,---,0.00,VWS V14.01,2013-06-21 15:31:00,
2013-06-21 10:32:00,81.5,48.8,17.72,South,179,3.6,3.6,32,0.00,,---,0.00,VWS V14.01,2013-06-21 15:32:00,
2013-06-21 10:33:00,81.5,48.8,17.72,South,179,3.6,3.6,32,0.00,,---,0.00,VWS V14.01,2013-06-21 15:33:00,
2013-06-21 10:34:00,81.5,48.8,17.72,South,179,3.6,3.6,32,0.00,,---,0.00,VWS V14.01,2013-06-21 15:34:00,
2013-06-21 10:37:00,81.5,48.8,17.72,SSE,165,3.1,3.1,32,0.00,,---,0.00,VWS V14.01,2013-06-21 15:37:00,
2013-06-21 10:38:00,81.5,48.8,17.72,SSE,165,3.1,3.1,32,0.00,,---,0.00,VWS V14.01,2013-06-21 15:38:00,
2013-06-21 10:39:00,81.5,48.8,17.72,SSE,165,3.1,3.1,32,0.00,,---,0.00,VWS V14.01,2013-06-21 15:39:00,
2013-06-21 10:42:00,82.4,49.6,17.72,SSE,165,3.1,3.1,32,0.00,,---,0.00,VWS V14.01,2013-06-21 15:42:00,
2013-06-21 10:43:00,82.4,48.8,17.72,SSE,165,3.1,3.1,31,0.00,,---,0.00,VWS V14.01,2013-06-21 15:43:00,
2013-06-21 10:44:00,82.4,48.8,17.72,South,177,0.0,0.0,31,0.00,,---,0.00,VWS V14.01,2013-06-21 15:44:00,
2013-06-21 10:47:00,82.4,48.8,17.72,South,181,2.2,2.2,31,0.00,,---,0.00,VWS V14.01,2013-06-21 15:47:00,
2013-06-21 10:48:00,82.4,48.8,17.72,South,181,2.2,2.2,31,0.00,,---,0.00,VWS V14.01,2013-06-21 15:48:00,
2013-06-21 10:50:00,82.4,48.8,17.72,SSE,156,2.2,2.2,31,0.00,,---,0.00,VWS V14.01,2013-06-21 15:50:00,
2013-06-21 10:52:00,82.9,48.3,17.72,SSE,156,2.2,2.2,30,0.00,,---,0.00,VWS V14.01,2013-06-21 15:52:00,
2013-06-21 10:53:00,82.9,48.3,17.72,SSE,156,2.2,2.2,30,0.00,,---,0.00,VWS V14.01,2013-06-21 15:53:00,
2013-06-21 10:55:00,82.9,48.3,17.72,SSE,166,2.2,2.2,30,0.00,,---,0.00,VWS V14.01,2013-06-21 15:55:00,
2013-06-21 10:57:00,82.8,47.3,17.72,South,173,2.7,2.7,29,0.00,,---,0.00,VWS V14.01,2013-06-21 15:57:00,
2013-06-21 10:58:00,82.8,47.3,17.72,South,173,0.0,2.7,29,0.00,,---,0.00,VWS V14.01,2013-06-21 15:58:00,
2013-06-21 11:00:00,82.8,47.3,17.72,South,173,0.0,0.0,29,0.00,,---,0.00,VWS V14.01,2013-06-21 16:00:00,
2013-06-21 11:03:00,82.8,47.3,17.72,South,169,4.0,4.0,29,0.00,,---,0.00,VWS V14.01,2013-06-21 16:03:00,
2013-06-21 11:05:00,82.8,47.3,17.72,South,169,4.0,4.0,29,0.00,,---,0.00,VWS V14.01,2013-06-21 16:05:00,
2013-06-21 11:08:00,83.3,46.8,17.72,South,169,4.0,4.0,28,0.00,,---,0.00,VWS V14.01,2013-06-21 16:08:00,
2013-06-21 11:09:00,83.3,44.9,17.72,South,169,4.0,4.0,26,0.00,,---,0.00,VWS V14.01,2013-06-21 16:09:00,
2013-06-21 11:11:00,83.3,44.9,17.72,SSE,165,7.2,7.2,26,0.00,,---,0.00,VWS V14.01,2013-06-21 16:11:00,
2013-06-21 11:13:00,83.3,44.9,17.72,SE,139,3.1,3.1,26,0.00,,---,0.00,VWS V14.01,2013-06-21 16:13:00,
2013-06-21 11:14:00,83.3,44.9,17.72,SE,139,3.1,3.1,26,0.00,,---,0.00,VWS V14.01,2013-06-21 16:14:00,
2013-06-21 11:16:00,83.3,47.8,17.72,West,279,6.3,6.3,29,0.00,,---,0.00,VWS V14.01,2013-06-21 16:16:00,
2013-06-21 11:18:00,83.3,47.8,17.72,South,176,4.0,4.0,29,0.00,,---,0.00,VWS V14.01,2013-06-21 16:18:00,
2013-06-21 11:19:00,83.3,47.8,17.72,South,176,4.0,4.0,29,0.00,,---,0.00,VWS V14.01,2013-06-21 16:19:00,
2013-06-21 11:22:00,83.3,47.8,17.72,ESE,115,3.1,3.1,29,0.00,,---,0.00,VWS V14.01,2013-06-21 16:22:00,
2013-06-21 11:23:00,83.3,47.8,17.72,ESE,115,3.1,3.1,29,0.00,,---,0.00,VWS V14.01,2013-06-21 16:23:00,
2013-06-21 11:24:00,83.3,47.8,17.72,ESE,115,3.1,3.1,29,0.00,,---,0.00,VWS V14.01,2013-06-21 16:24:00,
2013-06-21 11:25:00,83.3,48.7,17.72,SSE,152,2.7,3.1,30,0.00,,---,0.00,VWS V14.01,2013-06-21 16:25:00,
2013-06-21 11:27:00,83.3,48.7,17.72,SSE,152,2.7,2.7,30,0.00,,---,0.00,VWS V14.01,2013-06-21 16:27:00,
2013-06-21 11:28:00,83.3,48.7,17.72,SSW,197,6.3,6.3,30,0.00,,---,0.00,VWS V14.01,2013-06-21 16:28:00,
2013-06-21 11:29:00,83.3,48.7,17.72,SE,141,3.1,6.3,30,0.00,,---,0.00,VWS V14.01,2013-06-21 16:29:00,
2013-06-21 11:30:00,83.3,48.7,17.72,SE,141,3.1,3.1,30,0.00,,---,0.00,VWS V14.01,2013-06-21 16:30:00,
2013-06-21 11:33:00,84.0,49.3,17.72,SE,125,3.6,3.6,30,0.00,,---,0.00,VWS V14.01,2013-06-21 16:33:00,
2013-06-21 11:34:00,84.0,49.3,17.72,SE,125,3.6,3.6,30,0.00,,---,0.00,VWS V14.01,2013-06-21 16:34:00,
2013-06-21 11:35:00,84.2,49.4,17.72,SE,125,3.6,3.6,30,0.00,,---,0.00,VWS V14.01,2013-06-21 16:35:00,
2013-06-21 11:38:00,84.2,49.4,17.72,South,177,5.8,5.8,30,0.00,,---,0.00,VWS V14.01,2013-06-21 16:38:00,
2013-06-21 11:39:00,84.2,46.6,17.72,South,177,5.8,5.8,27,0.00,,---,0.00,VWS V14.01,2013-06-21 16:39:00,
2013-06-21 11:40:00,84.2,46.6,17.72,South,177,5.8,5.8,27,0.00,,---,0.00,VWS V14.01,2013-06-21 16:40:00,
2013-06-21 11:42:00,84.2,46.6,17.72,South,177,5.8,5.8,27,0.00,,---,0.00,VWS V14.01,2013-06-21 16:42:00,
2013-06-21 11:44:00,84.2,46.6,17.72,SSE,160,3.1,3.1,27,0.00,,---,0.00,VWS V14.01,2013-06-21 16:44:00,
2013-06-21 11:45:00,84.2,46.6,17.72,SSE,160,3.1,3.1,27,0.00,,---,0.00,VWS V14.01,2013-06-21 16:45:00,
2013-06-21 11:47:00,84.2,46.6,17.72,SSE,166,4.9,4.9,27,0.00,,---,0.00,VWS V14.01,2013-06-21 16:47:00,
2013-06-21 11:49:00,84.2,46.6,17.72,SSE,166,4.9,4.9,27,0.00,,---,0.00,VWS V14.01,2013-06-21 16:49:00,
2013-06-21 11:50:00,84.2,46.6,17.72,SSE,166,4.9,4.9,27,0.00,,---,0.00,VWS V14.01,2013-06-21 16:50:00,
2013-06-21 11:52:00,83.7,47.1,17.72,SSE,163,2.7,2.7,28,0.00,,---,0.00,VWS V14.01,2013-06-21 16:52:00,
2013-06-21 11:54:00,83.7,45.2,17.72,SSE,163,2.7,2.7,26,0.00,,---,0.00,VWS V14.01,2013-06-21 16:54:00,
2013-06-21 11:55:00,83.7,45.2,17.72,SSE,163,2.7,2.7,26,0.00,,---,0.00,VWS V14.01,2013-06-21 16:55:00,
2013-06-21 11:57:00,83.7,45.2,17.72,SSE,165,3.6,4.9,26,0.00,,---,0.00,VWS V14.01,2013-06-21 16:57:00,
2013-06-21 11:59:00,83.3,44.9,17.72,SSE,165,3.6,3.6,26,0.00,,---,0.00,VWS V14.01,2013-06-21 16:59:00,
2013-06-21 12:00:00,83.3,44.9,17.72,SSE,165,3.6,3.6,26,0.00,,---,0.00,VWS V14.01,2013-06-21 17:00:00,
2013-06-21 12:01:00,83.3,47.8,17.72,SSE,163,3.6,3.6,29,0.00,,---,0.00,VWS V14.01,2013-06-21 17:01:00,
2013-06-21 12:03:00,83.3,47.8,17.72,West,262,0.0,0.0,29,0.00,,---,0.00,VWS V14.01,2013-06-21 17:03:00,
2013-06-21 12:06:00,83.3,47.8,17.72,ESE,103,2.7,2.7,29,0.00,,---,0.00,VWS V14.01,2013-06-21 17:06:00,
2013-06-21 12:07:00,83.3,47.8,17.72,ESE,103,2.7,2.7,29,0.00,,---,0.00,VWS V14.01,2013-06-21 17:07:00,
2013-06-21 12:09:00,83.3,47.8,17.72,SE,130,3.1,3.1,29,0.00,,---,0.00,VWS V14.01,2013-06-21 17:09:00,
2013-06-21 12:11:00,83.3,47.8,17.72,SE,130,3.1,3.1,29,0.00,,---,0.00,VWS V14.01,2013-06-21 17:11:00,
2013-06-21 12:12:00,83.3,47.8,17.72,SE,130,3.1,3.1,29,0.00,,---,0.00,VWS V14.01,2013-06-21 17:12:00,
2013-06-21 12:14:00,83.3,47.8,17.72,ESE,115,2.7,2.7,29,0.00,,---,0.00,VWS V14.01,2013-06-21 17:14:00,
2013-06-21 12:16:00,84.7,46.1,17.72,SSW,208,3.6,3.6,26,0.00,,---,0.00,VWS V14.01,2013-06-21 17:16:00,
2013-06-21 12:17:00,84.7,46.1,17.72,SSW,208,3.6,3.6,26,0.00,,---,0.00,VWS V14.01,2013-06-21 17:17:00,
2013-06-21 12:18:00,85.1,48.4,17.72,SSE,163,4.0,4.0,28,0.00,,---,0.00,VWS V14.01,2013-06-21 17:18:00,
2013-06-21 12:19:00,85.1,46.4,17.72,SSE,163,4.0,4.0,26,0.00,,---,0.00,VWS V14.01,2013-06-21 17:19:00,
2013-06-21 12:21:00,85.5,47.7,17.72,SSE,163,4.0,4.0,27,0.00,,---,0.00,VWS V14.01,2013-06-21 17:21:00,
2013-06-21 12:22:00,85.8,47.0,17.72,SSE,154,3.6,3.6,26,0.00,,---,0.00,VWS V14.01,2013-06-21 17:22:00,
2013-06-21 12:23:00,85.8,47.0,17.72,SSE,159,3.6,3.6,26,0.00,,---,0.00,VWS V14.01,2013-06-21 17:23:00,
2013-06-21 12:24:00,85.8,47.0,17.72,SSE,159,3.6,3.6,26,0.00,,---,0.00,VWS V14.01,2013-06-21 17:24:00,
2013-06-21 12:26:00,86.2,46.3,17.72,SSE,159,3.6,3.6,25,0.00,,---,0.00,VWS V14.01,2013-06-21 17:26:00,
2013-06-21 12:28:00,86.0,45.0,17.72,South,179,4.5,4.5,24,0.00,,---,0.00,VWS V14.01,2013-06-21 17:28:00,
2013-06-21 12:29:00,86.0,43.9,17.72,South,179,4.5,4.5,23,0.00,,---,0.00,VWS V14.01,2013-06-21 17:29:00,
2013-06-21 12:31:00,85.8,44.9,17.72,SSW,192,4.5,4.5,24,0.00,,---,0.00,VWS V14.01,2013-06-21 17:31:00,
2013-06-21 12:33:00,85.6,45.8,17.72,SSW,192,4.5,4.5,25,0.00,,---,0.00,VWS V14.01,2013-06-21 17:33:00,
2013-06-21 12:35:00,85.5,44.6,17.72,SE,127,2.7,2.7,24,0.00,,---,0.00,VWS V14.01,2013-06-21 17:35:00,
2013-06-21 12:36:00,85.5,45.7,17.72,SE,144,3.1,3.1,25,0.00,,---,0.00,VWS V14.01,2013-06-21 17:36:00,
2013-06-21 12:38:00,85.5,46.7,17.72,WSW,238,2.7,2.7,26,0.00,,---,0.00,VWS V14.01,2013-06-21 17:38:00,
2013-06-21 12:40:00,85.6,48.8,17.72,South,174,3.1,3.1,28,0.00,,---,0.00,VWS V14.01,2013-06-21 17:40:00,
2013-06-21 12:43:00,86.0,47.2,17.72,South,174,3.1,3.1,26,0.00,,---,0.00,VWS V14.01,2013-06-21 17:43:00,
2013-06-21 12:44:00,86.0,47.2,17.72,South,174,3.1,3.1,26,0.00,,---,0.00,VWS V14.01,2013-06-21 17:44:00,
2013-06-21 12:45:00,86.2,48.3,17.72,SSE,153,3.6,3.6,27,0.00,,---,0.00,VWS V14.01,2013-06-21 17:45:00,
2013-06-21 12:46:00,86.2,48.3,17.72,SSE,153,3.6,3.6,27,0.00,,---,0.00,VWS V14.01,2013-06-21 17:46:00,
2013-06-21 12:47:00,86.2,47.3,17.72,SSE,153,3.6,3.6,26,0.00,,---,0.00,VWS V14.01,2013-06-21 17:47:00,
2013-06-21 12:51:00,86.4,49.4,17.72,South,179,2.7,2.7,28,0.00,,---,0.00,VWS V14.01,2013-06-21 17:51:00,
2013-06-21 12:52:00,86.4,48.5,17.72,South,179,2.7,2.7,27,0.00,,---,0.00,VWS V14.01,2013-06-21 17:52:00,
2013-06-21 12:56:00,86.5,45.5,17.72,South,173,2.7,2.7,24,0.00,,---,0.00,VWS V14.01,2013-06-21 17:56:00,
2013-06-21 12:57:00,86.5,45.5,17.72,South,173,2.7,2.7,24,0.00,,---,0.00,VWS V14.01,2013-06-21 17:57:00,
2013-06-21 12:58:00,86.5,45.5,17.72,South,172,2.7,2.7,24,0.00,,---,0.00,VWS V14.01,2013-06-21 17:58:00,
2013-06-21 13:01:00,86.5,47.6,17.72,South,172,2.7,2.7,26,0.00,,---,0.00,VWS V14.01,2013-06-21 18:01:00,
2013-06-21 13:02:00,86.5,46.6,17.72,West,261,2.7,2.7,25,0.00,,---,0.00,VWS V14.01,2013-06-21 18:02:00,
2013-06-21 13:03:00,86.4,46.4,17.72,West,261,2.7,2.7,25,0.00,,---,0.00,VWS V14.01,2013-06-21 18:03:00,
2013-06-21 13:07:00,86.4,45.3,17.72,NNE,22,4.0,4.0,24,0.00,,---,0.00,VWS V14.01,2013-06-21 18:07:00,
2013-06-21 13:08:00,86.4,45.3,17.72,NNE,22,4.0,4.0,24,0.00,,---,0.00,VWS V14.01,2013-06-21 18:08:00,
2013-06-21 13:12:00,86.2,45.2,17.72,SSE,166,3.1,3.1,24,0.00,,---,0.00,VWS V14.01,2013-06-21 18:12:00,
2013-06-21 13:14:00,86.2,46.3,17.72,SSE,166,3.1,3.1,25,0.00,,---,0.00,VWS V14.01,2013-06-21 18:14:00,
2013-06-21 13:17:00,86.2,46.3,17.72,NNE,30,3.1,3.1,25,0.00,,---,0.00,VWS V14.01,2013-06-21 18:17:00,
2013-06-21 13:18:00,85.8,47.0,17.72,NNE,30,3.1,3.1,26,0.00,,---,0.00,VWS V14.01,2013-06-21 18:18:00,
2013-06-21 13:19:00,85.8,47.0,17.72,NNE,30,3.1,3.1,26,0.00,,---,0.00,VWS V14.01,2013-06-21 18:19:00,
2013-06-21 13:20:00,85.8,46.0,17.72,NNE,28,2.7,3.1,25,0.00,,---,0.00,VWS V14.01,2013-06-21 18:20:00,
2013-06-21 13:22:00,86.0,46.1,17.72,ENE,71,0.0,0.0,25,0.00,,---,0.00,VWS V14.01,2013-06-21 18:22:00,
2013-06-21 13:23:00,86.0,46.1,17.72,ENE,71,0.0,0.0,25,0.00,,---,0.00,VWS V14.01,2013-06-21 18:23:00,
2013-06-21 13:28:00,86.2,47.3,17.72,South,180,3.1,3.1,26,0.00,,---,0.00,VWS V14.01,2013-06-21 18:28:00,
2013-06-21 13:29:00,86.2,46.3,17.72,South,178,3.6,3.6,25,0.00,,---,0.00,VWS V14.01,2013-06-21 18:29:00,
2013-06-21 13:33:00,85.8,47.0,17.72,South,187,0.0,0.0,26,0.00,,---,0.00,VWS V14.01,2013-06-21 18:33:00,
2013-06-21 13:34:00,85.8,46.0,17.72,South,187,0.0,0.0,25,0.00,,---,0.00,VWS V14.01,2013-06-21 18:34:00,
2013-06-21 13:38:00,85.6,44.7,17.72,South,179,3.6,3.6,24,0.00,,---,0.00,VWS V14.01,2013-06-21 18:38:00,
2013-06-21 13:39:00,85.6,44.7,17.72,South,179,3.6,3.6,24,0.00,,---,0.00,VWS V14.01,2013-06-21 18:39:00,
2013-06-21 13:44:00,85.5,44.6,17.72,South,169,2.2,2.2,24,0.00,,---,0.00,VWS V14.01,2013-06-21 18:44:00,
2013-06-21 13:45:00,85.5,45.7,17.72,South,169,2.2,2.2,25,0.00,,---,0.00,VWS V14.01,2013-06-21 18:45:00,
2013-06-21 13:50:00,85.5,44.6,17.72,SSW,199,0.0,0.0,24,0.00,,---,0.00,VWS V14.01,2013-06-21 18:50:00,
2013-06-21 13:51:00,85.5,44.6,17.72,SSW,199,0.0,0.0,24,0.00,,---,0.00,VWS V14.01,2013-06-21 18:51:00,
2013-06-21 13:55:00,85.5,43.5,17.72,SSE,148,3.6,3.6,23,0.00,,---,0.00,VWS V14.01,2013-06-21 18:55:00,
2013-06-21 13:56:00,85.5,43.5,17.72,SSE,161,3.1,3.6,23,0.00,,---,0.00,VWS V14.01,2013-06-21 18:56:00,
2013-06-21 14:01:00,85.8,46.0,17.72,South,183,0.0,0.0,25,0.00,,---,0.00,VWS V14.01,2013-06-21 19:01:00,
2013-06-21 14:06:00,85.6,43.6,17.72,South,185,3.6,3.6,23,0.00,,---,0.00,VWS V14.01,2013-06-21 19:06:00,
2013-06-21 14:12:00,85.5,45.7,17.72,SSE,160,3.1,4.0,25,0.00,,---,0.00,VWS V14.01,2013-06-21 19:12:00,
2013-06-21 14:15:00,85.5,45.7,17.72,SSW,201,2.7,5.4,25,0.00,,---,0.00,VWS V14.01,2013-06-21 19:15:00,
2013-06-21 14:17:00,84.9,44.1,17.72,SSE,153,0.0,2.2,24,0.00,,---,0.00,VWS V14.01,2013-06-21 19:17:00,
2013-06-21 14:18:00,84.9,44.1,17.72,SSE,155,0.0,0.0,24,0.00,,---,0.00,VWS V14.01,2013-06-21 19:18:00,
2013-06-21 14:20:00,84.9,43.0,17.72,West,268,0.0,2.2,23,0.00,,---,0.00,VWS V14.01,2013-06-21 19:20:00,
2013-06-21 14:23:00,84.9,43.0,17.72,SSW,192,0.0,2.2,23,0.00,,---,0.00,VWS V14.01,2013-06-21 19:23:00,
2013-06-21 14:24:00,84.9,44.1,17.72,SW,233,2.7,2.7,24,0.00,,---,0.00,VWS V14.01,2013-06-21 19:24:00,
2013-06-21 14:25:00,85.1,45.4,17.72,SW,233,3.1,3.1,25,0.00,,---,0.00,VWS V14.01,2013-06-21 19:25:00,
2013-06-21 14:28:00,84.9,43.0,17.72,SSE,152,2.2,3.1,23,0.00,,---,0.00,VWS V14.01,2013-06-21 19:28:00,
2013-06-21 14:29:00,84.9,43.0,17.72,SE,143,3.1,3.1,23,0.00,,---,0.00,VWS V14.01,2013-06-21 19:29:00,
2013-06-21 14:30:00,84.9,44.1,17.72,South,170,0.0,0.0,24,0.00,,---,0.00,VWS V14.01,2013-06-21 19:30:00,
2013-06-21 14:31:00,84.9,44.1,17.72,ESE,115,0.0,0.0,24,0.00,,---,0.00,VWS V14.01,2013-06-21 19:31:00,
2013-06-21 14:33:00,84.9,44.1,17.72,South,187,2.7,2.7,24,0.00,,---,0.00,VWS V14.01,2013-06-21 19:33:00,
2013-06-21 14:34:00,85.1,45.4,17.72,SSW,194,2.7,3.1,25,0.00,,---,0.00,VWS V14.01,2013-06-21 19:34:00,
2013-06-21 14:35:00,85.1,45.4,17.72,NE,44,2.2,2.2,25,0.00,,---,0.00,VWS V14.01,2013-06-21 19:35:00,
2013-06-21 14:36:00,85.1,45.4,17.72,East,87,3.1,3.1,25,0.00,,---,0.00,VWS V14.01,2013-06-21 19:36:00,
2013-06-21 14:38:00,85.1,45.4,17.72,SSE,149,0.0,4.0,25,0.00,,---,0.00,VWS V14.01,2013-06-21 19:38:00,
2013-06-21 14:39:00,85.1,45.4,17.72,SSE,154,0.0,2.7,25,0.00,,---,0.00,VWS V14.01,2013-06-21 19:39:00,
2013-06-21 14:41:00,85.1,43.2,17.72,SE,140,2.2,2.7,23,0.00,,---,0.00,VWS V14.01,2013-06-21 19:41:00,
2013-06-21 14:42:00,85.1,43.2,17.72,SE,125,2.2,2.2,23,0.00,,---,0.00,VWS V14.01,2013-06-21 19:42:00,
2013-06-21 14:45:00,84.6,42.7,17.72,SE,140,0.0,0.0,23,0.00,,---,0.00,VWS V14.01,2013-06-21 19:45:00,
2013-06-21 14:48:00,84.2,44.6,17.72,SSE,154,2.2,2.7,25,0.00,,---,0.00,VWS V14.01,2013-06-21 19:48:00,
2013-06-21 14:49:00,84.0,45.5,17.72,SSE,153,2.7,2.7,26,0.00,,---,0.00,VWS V14.01,2013-06-21 19:49:00,
2013-06-21 14:50:00,83.8,45.3,17.72,SSE,150,0.0,0.0,26,0.00,,---,0.00,VWS V14.01,2013-06-21 19:50:00,
2013-06-21 14:53:00,83.8,45.3,17.72,South,176,0.0,0.0,26,0.00,,---,0.00,VWS V14.01,2013-06-21 19:53:00,
2013-06-21 14:54:00,83.8,45.3,17.72,South,176,0.0,0.0,26,0.00,,---,0.00,VWS V14.01,2013-06-21 19:54:00,
2013-06-21 14:55:00,83.8,43.2,17.72,South,176,0.0,0.0,24,0.00,,---,0.00,VWS V14.01,2013-06-21 19:55:00,
2013-06-21 14:58:00,83.8,43.2,17.72,SE,137,4.0,4.0,24,0.00,,---,0.00,VWS V14.01,2013-06-21 19:58:00,
2013-06-21 14:59:00,83.8,43.2,17.72,NNE,18,2.2,4.0,24,0.00,,---,0.00,VWS V14.01,2013-06-21 19:59:00,
2013-06-21 15:00:00,84.2,44.6,17.72,SE,140,3.1,3.1,25,0.00,,---,0.00,VWS V14.01,2013-06-21 20:00:00,
2013-06-21 15:01:00,84.2,44.6,17.72,SE,140,2.2,3.1,25,0.00,,---,0.00,VWS V14.01,2013-06-21 20:01:00,
2013-06-21 15:03:00,84.0,44.5,17.72,South,176,0.0,3.1,25,0.00,,---,0.00,VWS V14.01,2013-06-21 20:03:00,
2013-06-21 15:04:00,84.0,44.5,17.72,South,179,0.0,3.1,25,0.00,,---,0.00,VWS V14.01,2013-06-21 20:04:00,
2013-06-21 15:05:00,84.0,44.5,17.72,SSE,167,3.1,3.1,25,0.00,,---,0.00,VWS V14.01,2013-06-21 20:05:00,
2013-06-21 15:06:00,84.2,44.6,17.72,SSE,152,0.0,2.2,25,0.00,,---,0.00,VWS V14.01,2013-06-21 20:06:00,
2013-06-21 15:09:00,84.2,43.5,17.72,SW,233,0.0,0.0,24,0.00,,---,0.00,VWS V14.01,2013-06-21 20:09:00,
2013-06-21 15:11:00,84.2,45.6,17.72,WSW,253,2.7,3.6,26,0.00,,---,0.00,VWS V14.01,2013-06-21 20:11:00,
2013-06-21 15:14:00,84.4,43.7,17.72,SSE,150,3.1,3.1,24,0.00,,---,0.00,VWS V14.01,2013-06-21 20:14:00,
2013-06-21 15:16:00,84.2,41.3,17.72,South,185,3.1,3.1,22,0.00,,---,0.00,VWS V14.01,2013-06-21 20:16:00,
2013-06-21 15:19:00,84.2,42.4,17.72,WSW,251,2.7,3.1,23,0.00,,---,0.00,VWS V14.01,2013-06-21 20:19:00,
2013-06-21 15:21:00,84.2,43.5,17.72,WSW,258,2.7,2.7,24,0.00,,---,0.00,VWS V14.01,2013-06-21 20:21:00,
2013-06-21 15:24:00,84.4,46.8,17.72,SSW,204,0.0,5.8,27,0.00,,---,0.00,VWS V14.01,2013-06-21 20:24:00,
2013-06-21 15:26:00,84.4,46.8,17.72,SSW,212,5.8,5.8,27,0.00,,---,0.00,VWS V14.01,2013-06-21 20:26:00,
2013-06-21 15:29:00,84.4,44.8,17.72,WNW,290,0.0,3.1,25,0.00,,---,0.00,VWS V14.01,2013-06-21 20:29:00,
2013-06-21 15:30:00,84.4,44.8,17.72,WNW,290,0.0,3.1,25,0.00,,---,0.00,VWS V14.01,2013-06-21 20:30:00,
2013-06-21 15:31:00,84.4,44.8,17.72,SSW,194,2.2,2.2,25,0.00,,---,0.00,VWS V14.01,2013-06-21 20:31:00,
2013-06-21 15:32:00,84.4,44.8,17.72,ENE,77,2.7,3.1,25,0.00,,---,0.00,VWS V14.01,2013-06-21 20:32:00,
2013-06-21 15:35:00,84.4,42.6,17.72,South,174,3.1,3.1,23,0.00,,---,0.00,VWS V14.01,2013-06-21 20:35:00,
2013-06-21 15:36:00,84.4,42.6,17.72,South,174,2.2,3.1,23,0.00,,---,0.00,VWS V14.01,2013-06-21 20:36:00,
2013-06-21 15:37:00,84.4,42.6,17.72,South,174,0.0,0.0,23,0.00,,---,0.00,VWS V14.01,2013-06-21 20:37:00,
2013-06-21 15:40:00,84.4,42.6,17.72,North,5,0.0,3.1,23,0.00,,---,0.00,VWS V14.01,2013-06-21 20:40:00,
2013-06-21 15:41:00,84.4,42.6,17.72,North,5,0.0,0.0,23,0.00,,---,0.00,VWS V14.01,2013-06-21 20:41:00,
2013-06-21 15:42:00,84.4,44.8,17.72,NNW,339,2.2,2.2,25,0.00,,---,0.00,VWS V14.01,2013-06-21 20:42:00,
2013-06-21 15:44:00,84.4,44.8,17.72,NNE,25,0.0,0.0,25,0.00,,---,0.00,VWS V14.01,2013-06-21 20:44:00,
2013-06-21 15:46:00,84.6,44.9,17.72,East,84,2.7,2.7,25,0.00,,---,0.00,VWS V14.01,2013-06-21 20:46:00,
2013-06-21 15:48:00,84.6,43.8,17.72,West,262,2.7,2.7,24,0.00,,---,0.00,VWS V14.01,2013-06-21 20:48:00,
2013-06-21 15:49:00,84.6,44.9,17.72,SSE,160,3.1,3.1,25,0.00,,---,0.00,VWS V14.01,2013-06-21 20:49:00,
2013-06-21 15:51:00,84.6,44.9,17.72,South,173,3.1,3.1,25,0.00,,---,0.00,VWS V14.01,2013-06-21 20:51:00,
2013-06-21 15:53:00,84.6,44.9,17.72,SSE,161,4.0,4.0,25,0.00,,---,0.00,VWS V14.01,2013-06-21 20:53:00,
2013-06-21 15:54:00,84.6,44.9,17.72,SSE,157,4.0,4.0,25,0.00,,---,0.00,VWS V14.01,2013-06-21 20:54:00,
2013-06-21 15:55:00,84.7,44.0,17.72,SE,145,4.9,4.9,24,0.00,,---,0.00,VWS V14.01,2013-06-21 20:55:00,
2013-06-21 15:57:00,84.7,42.9,17.72,South,171,4.9,4.9,23,0.00,,---,0.00,VWS V14.01,2013-06-21 20:57:00,
2013-06-21 15:59:00,84.7,44.0,17.72,South,173,0.0,4.9,24,0.00,,---,0.00,VWS V14.01,2013-06-21 20:59:00,
2013-06-21 16:00:00,84.7,44.0,17.72,SSE,158,3.1,3.1,24,0.00,,---,0.00,VWS V14.01,2013-06-21 21:00:00,
2013-06-21 16:02:00,84.6,42.7,17.72,SSE,162,2.2,2.2,23,0.00,,---,0.00,VWS V14.01,2013-06-21 21:02:00,
2013-06-21 16:04:00,84.4,41.4,17.72,SSE,162,2.2,2.2,22,0.00,,---,0.00,VWS V14.01,2013-06-21 21:04:00,
2013-06-21 16:05:00,84.4,41.4,17.72,SE,143,0.0,2.2,22,0.00,,---,0.00,VWS V14.01,2013-06-21 21:05:00,
2013-06-21 16:07:00,84.4,41.4,17.72,South,175,2.2,2.2,22,0.00,,---,0.00,VWS V14.01,2013-06-21 21:07:00,
2013-06-21 16:09:00,84.4,42.6,17.72,South,175,0.0,0.0,23,0.00,,---,0.00,VWS V14.01,2013-06-21 21:09:00,
2013-06-21 16:10:00,84.4,42.6,17.72,SE,139,3.6,3.6,23,0.00,,---,0.00,VWS V14.01,2013-06-21 21:10:00,
2013-06-21 16:11:00,84.4,42.6,17.72,SE,139,3.6,3.6,23,0.00,,---,0.00,VWS V14.01,2013-06-21 21:11:00,
2013-06-21 16:13:00,84.4,42.6,17.72,SW,226,2.2,2.7,23,0.00,,---,0.00,VWS V14.01,2013-06-21 21:13:00,
2013-06-21 16:14:00,84.4,42.6,17.72,ESE,121,0.0,3.1,23,0.00,,---,0.00,VWS V14.01,2013-06-21 21:14:00,
2013-06-21 16:16:00,84.2,41.3,17.72,NNE,29,2.7,2.7,22,0.00,,---,0.00,VWS V14.01,2013-06-21 21:16:00,
2013-06-21 16:18:00,84.2,41.3,17.72,SSE,165,2.2,2.2,22,0.00,,---,0.00,VWS V14.01,2013-06-21 21:18:00,
2013-06-21 16:19:00,84.2,41.3,17.72,SW,219,0.0,2.2,22,0.00,,---,0.00,VWS V14.01,2013-06-21 21:19:00,
2013-06-21 16:21:00,84.2,43.5,17.72,SW,223,0.0,0.0,24,0.00,,---,0.00,VWS V14.01,2013-06-21 21:21:00,
2013-06-21 16:23:00,84.2,43.5,17.72,WNW,291,0.0,2.7,24,0.00,,---,0.00,VWS V14.01,2013-06-21 21:23:00,
2013-06-21 16:24:00,84.2,43.5,17.72,SSW,199,2.2,2.2,24,0.00,,---,0.00,VWS V14.01,2013-06-21 21:24:00,
2013-06-21 16:26:00,84.4,43.7,17.72,SSW,199,0.0,2.7,24,0.00,,---,0.00,VWS V14.01,2013-06-21 21:26:00,
2013-06-21 16:28:00,84.4,43.7,17.72,SSW,199,0.0,0.0,24,0.00,,---,0.00,VWS V14.01,2013-06-21 21:28:00,
2013-06-21 16:29:00,84.4,42.6,17.72,SSW,199,0.0,0.0,23,0.00,,---,0.00,VWS V14.01,2013-06-21 21:29:00,
2013-06-21 16:31:00,84.4,42.6,17.72,South,181,2.7,2.7,23,0.00,,---,0.00,VWS V14.01,2013-06-21 21:31:00,
2013-06-21 16:33:00,84.4,41.4,17.72,SSE,152,0.0,0.0,22,0.00,,---,0.00,VWS V14.01,2013-06-21 21:33:00,
2013-06-21 16:34:00,84.4,41.4,17.72,SSE,152,0.0,0.0,22,0.00,,---,0.00,VWS V14.01,2013-06-21 21:34:00,
2013-06-21 16:35:00,84.4,41.4,17.72,South,177,2.2,2.2,22,0.00,,---,0.00,VWS V14.01,2013-06-21 21:35:00,
2013-06-21 16:36:00,84.2,42.4,17.72,South,177,0.0,0.0,23,0.00,,---,0.00,VWS V14.01,2013-06-21 21:36:00,
2013-06-21 16:38:00,84.2,42.4,17.72,South,190,2.2,2.2,23,0.00,,---,0.00,VWS V14.01,2013-06-21 21:38:00,
2013-06-21 16:40:00,84.2,42.4,17.72,SSE,151,3.6,3.6,23,0.00,,---,0.00,VWS V14.01,2013-06-21 21:40:00,
2013-06-21 16:41:00,84.0,42.3,17.72,SE,134,2.7,2.7,23,0.00,,---,0.00,VWS V14.01,2013-06-21 21:41:00,
2013-06-21 16:42:00,84.0,42.3,17.72,SE,134,2.7,2.7,23,0.00,,---,0.00,VWS V14.01,2013-06-21 21:42:00,
2013-06-21 16:43:00,84.0,42.3,17.72,SE,141,0.0,2.2,23,0.00,,---,0.00,VWS V14.01,2013-06-21 21:43:00,
2013-06-21 16:45:00,84.0,42.3,17.72,SE,141,2.2,2.2,23,0.00,,---,0.00,VWS V14.01,2013-06-21 21:45:00,
2013-06-21 16:48:00,83.7,42.0,17.72,SSE,159,3.1,3.1,23,0.00,,---,0.00,VWS V14.01,2013-06-21 21:48:00,
2013-06-21 16:49:00,83.7,40.8,17.72,SE,130,2.2,3.1,22,0.00,,---,0.00,VWS V14.01,2013-06-21 21:49:00,
2013-06-21 16:51:00,83.5,40.7,17.72,SSE,164,0.0,2.7,22,0.00,,---,0.00,VWS V14.01,2013-06-21 21:51:00,
2013-06-21 16:53:00,83.5,40.7,17.72,SSE,164,0.0,0.0,22,0.00,,---,0.00,VWS V14.01,2013-06-21 21:53:00,
2013-06-21 16:54:00,83.5,41.8,17.72,SSE,164,0.0,0.0,23,0.00,,---,0.00,VWS V14.01,2013-06-21 21:54:00,
2013-06-21 16:55:00,83.5,41.8,17.72,SSE,164,0.0,0.0,23,0.00,,---,0.00,VWS V14.01,2013-06-21 21:55:00,
2013-06-21 16:56:00,83.5,41.8,17.72,SSE,164,0.0,0.0,23,0.00,,---,0.00,VWS V14.01,2013-06-21 21:56:00,
2013-06-21 16:58:00,83.5,41.8,17.72,SSE,164,0.0,0.0,23,0.00,,---,0.00,VWS V14.01,2013-06-21 21:58:00,
2013-06-21 16:59:00,83.5,41.8,17.72,SSE,164,0.0,0.0,23,0.00,,---,0.00,VWS V14.01,2013-06-21 21:59:00,
2013-06-21 17:00:00,83.5,41.8,17.72,South,184,0.0,0.0,23,0.00,,---,0.00,VWS V14.01,2013-06-21 22:00:00,
2013-06-21 17:01:00,83.5,41.8,17.72,WSW,256,3.6,3.6,23,0.00,,---,0.00,VWS V14.01,2013-06-21 22:01:00,
2013-06-21 17:03:00,83.5,41.8,17.72,SSW,192,0.0,0.0,23,0.00,,---,0.00,VWS V14.01,2013-06-21 22:03:00,
2013-06-21 17:04:00,83.1,40.4,17.72,SSW,192,0.0,0.0,22,0.00,,---,0.00,VWS V14.01,2013-06-21 22:04:00,
2013-06-21 17:05:00,83.1,40.4,17.72,SSW,192,0.0,0.0,22,0.00,,---,0.00,VWS V14.01,2013-06-21 22:05:00,
2013-06-21 17:06:00,83.1,40.4,17.72,SSW,192,0.0,0.0,22,0.00,,---,0.00,VWS V14.01,2013-06-21 22:06:00,
2013-06-21 17:08:00,83.1,40.4,17.72,SSW,192,0.0,0.0,22,0.00,,---,0.00,VWS V14.01,2013-06-21 22:08:00,
2013-06-21 17:09:00,83.1,40.4,17.72,SSW,192,0.0,0.0,22,0.00,,---,0.00,VWS V14.01,2013-06-21 22:09:00,
2013-06-21 17:10:00,83.1,40.4,17.72,SSW,192,0.0,0.0,22,0.00,,---,0.00,VWS V14.01,2013-06-21 22:10:00,
2013-06-21 17:11:00,83.1,42.6,17.72,SSW,192,0.0,0.0,24,0.00,,---,0.00,VWS V14.01,2013-06-21 22:11:00,
2013-06-21 17:13:00,83.1,45.7,17.72,SSW,192,0.0,0.0,27,0.00,,---,0.00,VWS V14.01,2013-06-21 22:13:00,
2013-06-21 17:14:00,83.1,45.7,17.72,SSW,192,0.0,0.0,27,0.00,,---,0.00,VWS V14.01,2013-06-21 22:14:00,
2013-06-21 17:15:00,82.9,46.5,17.72,SSW,192,0.0,0.0,28,0.00,,---,0.00,VWS V14.01,2013-06-21 22:15:00,
2013-06-21 17:18:00,82.8,44.4,17.72,SSW,192,0.0,0.0,26,0.00,,---,0.00,VWS V14.01,2013-06-21 22:18:00,
2013-06-21 17:19:00,82.8,43.4,17.72,North,0,0.0,2.7,25,0.00,,---,0.00,VWS V14.01,2013-06-21 22:19:00,
2013-06-21 17:20:00,82.8,43.4,17.72,North,0,0.0,0.0,25,0.00,,---,0.00,VWS V14.01,2013-06-21 22:20:00,
2013-06-21 17:23:00,82.8,43.4,17.72,North,0,0.0,0.0,25,0.00,,---,0.00,VWS V14.01,2013-06-21 22:23:00,
2013-06-21 17:24:00,82.8,43.4,17.72,North,357,0.0,0.0,25,0.00,,---,0.00,VWS V14.01,2013-06-21 22:24:00,
2013-06-21 17:25:00,82.6,44.3,17.72,North,357,0.0,0.0,26,0.00,,---,0.00,VWS V14.01,2013-06-21 22:25:00,
2013-06-21 17:28:00,82.6,45.2,17.72,North,1,2.7,2.7,27,0.00,,---,0.00,VWS V14.01,2013-06-21 22:28:00,
2013-06-21 17:29:00,82.6,45.2,17.72,North,1,2.2,2.2,27,0.00,,---,0.00,VWS V14.01,2013-06-21 22:29:00,
2013-06-21 17:30:00,82.6,45.2,17.72,North,357,2.2,2.2,27,0.00,,---,0.00,VWS V14.01,2013-06-21 22:30:00,
2013-06-21 17:31:00,82.6,45.2,17.72,North,1,2.2,2.2,27,0.00,,---,0.00,VWS V14.01,2013-06-21 22:31:00,
2013-06-21 17:33:00,82.0,46.7,17.72,North,1,0.0,0.0,29,0.00,,---,0.00,VWS V14.01,2013-06-21 22:33:00,
2013-06-21 17:34:00,82.0,46.7,17.72,North,7,3.1,3.1,29,0.00,,---,0.00,VWS V14.01,2013-06-21 22:34:00,
2013-06-21 17:35:00,82.0,46.7,17.72,North,1,2.7,2.7,29,0.00,,---,0.00,VWS V14.01,2013-06-21 22:35:00,
2013-06-21 17:36:00,82.0,46.7,17.72,North,1,2.7,2.7,29,0.00,,---,0.00,VWS V14.01,2013-06-21 22:36:00,
2013-06-21 17:38:00,81.9,46.5,17.72,North,357,0.0,0.0,29,0.00,,---,0.00,VWS V14.01,2013-06-21 22:38:00,
2013-06-21 17:39:00,81.5,46.2,17.72,NE,49,0.0,0.0,29,0.00,,---,0.00,VWS V14.01,2013-06-21 22:39:00,
2013-06-21 17:40:00,81.5,46.2,17.72,ENE,69,0.0,0.0,29,0.00,,---,0.00,VWS V14.01,2013-06-21 22:40:00,
2013-06-21 17:41:00,81.5,46.2,17.72,ENE,69,0.0,0.0,29,0.00,,---,0.00,VWS V14.01,2013-06-21 22:41:00,
2013-06-21 17:43:00,81.1,46.8,17.72,ENE,69,0.0,0.0,30,0.00,,---,0.00,VWS V14.01,2013-06-21 22:43:00,
2013-06-21 17:44:00,81.1,46.8,17.72,ENE,69,0.0,0.0,30,0.00,,---,0.00,VWS V14.01,2013-06-21 22:44:00,
2013-06-21 17:46:00,81.0,46.6,17.72,ENE,69,0.0,0.0,30,0.00,,---,0.00,VWS V14.01,2013-06-21 22:46:00,
2013-06-21 17:48:00,81.0,46.6,17.72,ENE,69,0.0,0.0,30,0.00,,---,0.00,VWS V14.01,2013-06-21 22:48:00,
2013-06-21 17:49:00,81.0,46.6,17.72,ENE,69,0.0,0.0,30,0.00,,---,0.00,VWS V14.01,2013-06-21 22:49:00,
2013-06-21 17:51:00,80.8,46.5,17.72,ENE,69,0.0,0.0,30,0.00,,---,0.00,VWS V14.01,2013-06-21 22:51:00,
2013-06-21 17:53:00,80.4,47.0,17.72,ENE,69,0.0,0.0,31,0.00,,---,0.00,VWS V14.01,2013-06-21 22:53:00,
2013-06-21 17:54:00,80.4,47.0,17.72,ENE,69,0.0,0.0,31,0.00,,---,0.00,VWS V14.01,2013-06-21 22:54:00,
2013-06-21 17:56:00,80.4,47.0,17.72,ENE,69,0.0,0.0,31,0.00,,---,0.00,VWS V14.01,2013-06-21 22:56:00,
2013-06-21 17:59:00,80.2,47.7,17.72,ENE,69,0.0,0.0,32,0.00,,---,0.00,VWS V14.01,2013-06-21 22:59:00,
2013-06-21 18:00:00,80.2,47.7,17.72,ENE,69,0.0,0.0,32,0.00,,---,0.00,VWS V14.01,2013-06-21 23:00:00,
2013-06-21 18:01:00,80.2,47.7,17.72,ENE,69,0.0,0.0,32,0.00,,---,0.00,VWS V14.01,2013-06-21 23:01:00,
2013-06-21 18:02:00,80.2,47.7,17.72,ENE,69,0.0,0.0,32,0.00,,---,0.00,VWS V14.01,2013-06-21 23:02:00,
2013-06-21 18:04:00,80.1,47.6,17.72,ENE,69,0.0,0.0,32,0.00,,---,0.00,VWS V14.01,2013-06-21 23:04:00,
2013-06-21 18:05:00,80.1,47.6,17.72,ENE,69,0.0,0.0,32,0.00,,---,0.00,VWS V14.01,2013-06-21 23:05:00,
2013-06-21 18:06:00,80.1,47.6,17.72,ENE,69,0.0,0.0,32,0.00,,---,0.00,VWS V14.01,2013-06-21 23:06:00,
2013-06-21 18:07:00,80.1,47.6,17.72,ENE,69,0.0,0.0,32,0.00,,---,0.00,VWS V14.01,2013-06-21 23:07:00,
2013-06-21 18:09:00,80.1,47.6,17.72,ENE,69,0.0,0.0,32,0.00,,---,0.00,VWS V14.01,2013-06-21 23:09:00,
2013-06-21 18:10:00,80.1,47.6,17.72,ENE,69,0.0,0.0,32,0.00,,---,0.00,VWS V14.01,2013-06-21 23:10:00,
2013-06-21 18:11:00,79.9,47.4,17.72,ENE,69,0.0,0.0,32,0.00,,---,0.00,VWS V14.01,2013-06-21 23:11:00,
2013-06-21 18:12:00,79.9,47.4,17.72,ENE,69,0.0,0.0,32,0.00,,---,0.00,VWS V14.01,2013-06-21 23:12:00,
2013-06-21 18:14:00,79.9,47.4,17.72,ENE,69,2.7,2.7,32,0.00,,---,0.00,VWS V14.01,2013-06-21 23:14:00,
2013-06-21 18:15:00,79.9,47.4,17.72,ENE,69,2.7,3.1,32,0.00,,---,0.00,VWS V14.01,2013-06-21 23:15:00,
2013-06-21 18:16:00,79.9,47.4,17.72,ENE,69,0.0,2.2,32,0.00,,---,0.00,VWS V14.01,2013-06-21 23:16:00,
2013-06-21 18:17:00,79.9,47.4,17.72,ENE,69,2.2,2.2,32,0.00,,---,0.00,VWS V14.01,2013-06-21 23:17:00,
2013-06-21 18:19:00,79.9,47.4,17.72,ENE,69,0.0,0.0,32,0.00,,---,0.00,VWS V14.01,2013-06-21 23:19:00,
2013-06-21 18:20:00,79.9,48.2,17.72,ENE,69,0.0,0.0,33,0.00,,---,0.00,VWS V14.01,2013-06-21 23:20:00,
2013-06-21 18:21:00,79.9,48.2,17.72,ENE,69,0.0,0.0,33,0.00,,---,0.00,VWS V14.01,2013-06-21 23:21:00,
2013-06-21 18:22:00,79.9,48.2,17.72,ENE,69,0.0,0.0,33,0.00,,---,0.00,VWS V14.01,2013-06-21 23:22:00,
2013-06-21 18:24:00,79.7,48.9,17.72,ENE,69,0.0,0.0,34,0.00,,---,0.00,VWS V14.01,2013-06-21 23:24:00,
2013-06-21 18:25:00,79.7,48.9,17.72,ENE,69,0.0,0.0,34,0.00,,---,0.00,VWS V14.01,2013-06-21 23:25:00,
2013-06-21 18:26:00,79.9,49.0,17.72,ENE,69,0.0,0.0,34,0.00,,---,0.00,VWS V14.01,2013-06-21 23:26:00,
2013-06-21 18:27:00,79.9,49.0,17.72,ENE,69,0.0,0.0,34,0.00,,---,0.00,VWS V14.01,2013-06-21 23:27:00,
2013-06-21 18:29:00,80.1,49.2,17.72,ENE,69,0.0,0.0,34,0.00,,---,0.00,VWS V14.01,2013-06-21 23:29:00,
2013-06-21 18:30:00,80.1,49.2,17.72,ENE,69,0.0,0.0,34,0.00,,---,0.00,VWS V14.01,2013-06-21 23:30:00,
2013-06-21 18:31:00,80.1,49.2,17.72,ENE,69,0.0,0.0,34,0.00,,---,0.00,VWS V14.01,2013-06-21 23:31:00,
2013-06-21 18:32:00,80.1,49.2,17.72,ENE,69,0.0,0.0,34,0.00,,---,0.00,VWS V14.01,2013-06-21 23:32:00,
2013-06-21 18:34:00,79.9,49.0,17.72,ENE,69,0.0,0.0,34,0.00,,---,0.00,VWS V14.01,2013-06-21 23:34:00,
2013-06-21 18:35:00,79.9,49.0,17.72,ENE,69,0.0,0.0,34,0.00,,---,0.00,VWS V14.01,2013-06-21 23:35:00,
2013-06-21 18:36:00,79.9,49.0,17.72,ENE,69,0.0,0.0,34,0.00,,---,0.00,VWS V14.01,2013-06-21 23:36:00,
2013-06-21 18:37:00,79.9,49.0,17.72,ENE,69,0.0,0.0,34,0.00,,---,0.00,VWS V14.01,2013-06-21 23:37:00,
2013-06-21 18:39:00,79.7,48.9,17.72,ESE,117,0.0,0.0,34,0.00,,---,0.00,VWS V14.01,2013-06-21 23:39:00,
2013-06-21 18:40:00,79.7,48.9,17.72,ESE,117,0.0,0.0,34,0.00,,---,0.00,VWS V14.01,2013-06-21 23:40:00,
2013-06-21 18:42:00,79.5,48.7,17.72,ESE,117,0.0,0.0,34,0.00,,---,0.00,VWS V14.01,2013-06-21 23:42:00,
2013-06-21 18:44:00,79.5,48.7,17.72,South,184,0.0,2.2,34,0.00,,---,0.00,VWS V14.01,2013-06-21 23:44:00,
2013-06-21 18:45:00,79.5,48.7,17.72,South,184,0.0,0.0,34,0.00,,---,0.00,VWS V14.01,2013-06-21 23:45:00,
2013-06-21 18:47:00,79.3,48.6,17.72,SSW,203,0.0,0.0,34,0.00,,---,0.00,VWS V14.01,2013-06-21 23:47:00,
2013-06-21 18:49:00,79.3,48.6,17.72,SSW,203,0.0,0.0,34,0.00,,---,0.00,VWS V14.01,2013-06-21 23:49:00,
2013-06-21 18:50:00,79.2,48.4,17.72,SSW,203,0.0,0.0,34,0.00,,---,0.00,VWS V14.01,2013-06-21 23:50:00,
2013-06-21 18:52:00,79.2,48.4,17.72,SSW,203,0.0,0.0,34,0.00,,---,0.00,VWS V14.01,2013-06-21 23:52:00,
2013-06-21 18:55:00,79.2,47.6,17.72,SSW,203,0.0,0.0,33,0.00,,---,0.00,VWS V14.01,2013-06-21 23:55:00,
2013-06-21 18:56:00,79.2,47.6,17.72,SSW,203,0.0,0.0,33,0.00,,---,0.00,VWS V14.01,2013-06-21 23:56:00,
2013-06-21 18:57:00,79.2,47.6,17.72,SSW,203,0.0,0.0,33,0.00,,---,0.00,VWS V14.01,2013-06-21 23:57:00,
2013-06-21 18:58:00,79.2,47.6,17.72,SSW,203,0.0,0.0,33,0.00,,---,0.00,VWS V14.01,2013-06-21 23:58:00,
2013-06-21 19:00:00,79.2,47.6,17.72,SSW,203,0.0,0.0,33,0.00,,---,0.00,VWS V14.01,2013-06-22 00:00:00,
2013-06-21 19:01:00,79.0,47.5,17.72,SSW,203,0.0,0.0,33,0.00,,---,0.00,VWS V14.01,2013-06-22 00:01:00,
2013-06-21 19:02:00,79.0,47.5,17.72,SSW,203,0.0,0.0,33,0.00,,---,0.00,VWS V14.01,2013-06-22 00:02:00,
2013-06-21 19:03:00,79.0,47.5,17.72,SSW,203,0.0,0.0,33,0.00,,---,0.00,VWS V14.01,2013-06-22 00:03:00,
2013-06-21 19:05:00,79.0,47.5,17.72,SSW,203,0.0,0.0,33,0.00,,---,0.00,VWS V14.01,2013-06-22 00:05:00,
2013-06-21 19:06:00,79.0,48.2,17.72,SSW,203,0.0,0.0,34,0.00,,---,0.00,VWS V14.01,2013-06-22 00:06:00,
2013-06-21 19:07:00,79.0,48.2,17.72,SSW,203,0.0,0.0,34,0.00,,---,0.00,VWS V14.01,2013-06-22 00:07:00,
2013-06-21 19:08:00,79.0,48.2,17.72,SSW,203,0.0,0.0,34,0.00,,---,0.00,VWS V14.01,2013-06-22 00:08:00,
2013-06-21 19:09:00,79.0,48.2,17.72,SSW,203,0.0,0.0,34,0.00,,---,0.00,VWS V14.01,2013-06-22 00:09:00,
2013-06-21 19:10:00,78.8,48.9,17.72,SSW,203,0.0,0.0,35,0.00,,---,0.00,VWS V14.01,2013-06-22 00:10:00,
2013-06-21 19:11:00,78.8,48.9,17.72,SSW,203,0.0,0.0,35,0.00,,---,0.00,VWS V14.01,2013-06-22 00:11:00,
2013-06-21 19:12:00,78.8,48.9,17.72,SSW,203,0.0,0.0,35,0.00,,---,0.00,VWS V14.01,2013-06-22 00:12:00,
2013-06-21 19:13:00,78.8,48.9,17.72,SSW,203,0.0,0.0,35,0.00,,---,0.00,VWS V14.01,2013-06-22 00:13:00,
2013-06-21 19:14:00,78.6,48.7,17.72,SSW,203,0.0,0.0,35,0.00,,---,0.00,VWS V14.01,2013-06-22 00:14:00,
2013-06-21 19:15:00,78.6,48.7,17.72,SSW,203,0.0,0.0,35,0.00,,---,0.00,VWS V14.01,2013-06-22 00:15:00,
2013-06-21 19:16:00,78.6,48.7,17.72,SSW,203,0.0,0.0,35,0.00,,---,0.00,VWS V14.01,2013-06-22 00:16:00,
2013-06-21 19:17:00,78.6,48.7,17.72,SSW,203,0.0,0.0,35,0.00,,---,0.00,VWS V14.01,2013-06-22 00:17:00,
2013-06-21 19:18:00,78.6,48.7,17.72,SSW,203,0.0,0.0,35,0.00,,---,0.00,VWS V14.01,2013-06-22 00:18:00,
2013-06-21 19:19:00,78.6,48.7,17.72,SSW,203,0.0,0.0,35,0.00,,---,0.00,VWS V14.01,2013-06-22 00:19:00,
2013-06-21 19:20:00,78.6,48.7,17.72,SSW,203,0.0,0.0,35,0.00,,---,0.00,VWS V14.01,2013-06-22 00:20:00,
2013-06-21 19:21:00,78.4,48.5,17.72,SSW,203,0.0,0.0,35,0.00,,---,0.00,VWS V14.01,2013-06-22 00:21:00,
2013-06-21 19:22:00,78.4,48.5,17.72,SSW,203,0.0,0.0,35,0.00,,---,0.00,VWS V14.01,2013-06-22 00:22:00,
2013-06-21 19:23:00,78.3,49.1,17.72,SSW,203,0.0,0.0,36,0.00,,---,0.00,VWS V14.01,2013-06-22 00:23:00,
2013-06-21 19:24:00,78.3,49.1,17.72,SSW,203,0.0,0.0,36,0.00,,---,0.00,VWS V14.01,2013-06-22 00:24:00,
2013-06-21 19:25:00,78.3,49.1,17.72,SSW,203,0.0,0.0,36,0.00,,---,0.00,VWS V14.01,2013-06-22 00:25:00,
2013-06-21 19:26:00,78.3,49.1,17.72,SSW,203,0.0,0.0,36,0.00,,---,0.00,VWS V14.01,2013-06-22 00:26:00,
2013-06-21 19:27:00,78.3,49.1,17.72,SSW,203,0.0,0.0,36,0.00,,---,0.00,VWS V14.01,2013-06-22 00:27:00,
2013-06-21 19:28:00,78.1,49.0,17.72,SSW,203,0.0,0.0,36,0.00,,---,0.00,VWS V14.01,2013-06-22 00:28:00,
2013-06-21 19:30:00,78.1,49.0,17.72,SSW,203,0.0,0.0,36,0.00,,---,0.00,VWS V14.01,2013-06-22 00:30:00,
2013-06-21 19:31:00,78.1,49.0,17.72,SSW,203,0.0,0.0,36,0.00,,---,0.00,VWS V14.01,2013-06-22 00:31:00,
2013-06-21 19:32:00,77.9,49.6,17.72,SSW,203,0.0,0.0,37,0.00,,---,0.00,VWS V14.01,2013-06-22 00:32:00,
2013-06-21 19:34:00,77.9,49.6,17.72,SSW,203,0.0,0.0,37,0.00,,---,0.00,VWS V14.01,2013-06-22 00:34:00,
2013-06-21 19:35:00,77.7,49.4,17.72,SSW,203,0.0,0.0,37,0.00,,---,0.00,VWS V14.01,2013-06-22 00:35:00,
2013-06-21 19:37:00,77.7,49.4,17.72,SSW,203,0.0,0.0,37,0.00,,---,0.00,VWS V14.01,2013-06-22 00:37:00,
2013-06-21 19:39:00,77.7,49.4,17.72,NNE,25,3.1,3.1,37,0.00,,---,0.00,VWS V14.01,2013-06-22 00:39:00,
2013-06-21 19:40:00,77.7,49.4,17.72,North,357,3.6,3.6,37,0.00,,---,0.00,VWS V14.01,2013-06-22 00:40:00,
2013-06-21 19:42:00,77.4,51.2,17.72,NW,311,2.7,3.6,40,0.00,,---,0.00,VWS V14.01,2013-06-22 00:42:00,
2013-06-21 19:44:00,77.4,51.2,17.72,NW,318,3.6,3.6,40,0.00,,---,0.00,VWS V14.01,2013-06-22 00:44:00,
2013-06-21 19:45:00,77.4,51.2,17.72,NW,315,0.0,3.6,40,0.00,,---,0.00,VWS V14.01,2013-06-22 00:45:00,
2013-06-21 19:47:00,77.2,51.0,17.72,WNW,289,0.0,0.0,40,0.00,,---,0.00,VWS V14.01,2013-06-22 00:47:00,
2013-06-21 19:48:00,77.2,51.0,17.72,WNW,289,0.0,0.0,40,0.00,,---,0.00,VWS V14.01,2013-06-22 00:48:00,
2013-06-21 19:49:00,77.2,51.0,17.72,SSW,209,0.0,0.0,40,0.00,,---,0.00,VWS V14.01,2013-06-22 00:49:00,
2013-06-21 19:50:00,76.8,51.4,17.72,SSW,209,0.0,0.0,41,0.00,,---,0.00,VWS V14.01,2013-06-22 00:50:00,
2013-06-21 19:51:00,76.8,51.4,17.72,SSW,193,0.0,2.2,41,0.00,,---,0.00,VWS V14.01,2013-06-22 00:51:00,
2013-06-21 19:52:00,76.6,51.2,17.72,SSW,193,0.0,0.0,41,0.00,,---,0.00,VWS V14.01,2013-06-22 00:52:00,
2013-06-21 19:53:00,76.6,51.2,17.72,SSW,193,0.0,0.0,41,0.00,,---,0.00,VWS V14.01,2013-06-22 00:53:00,
2013-06-21 19:54:00,76.6,51.2,17.72,NW,316,0.0,0.0,41,0.00,,---,0.00,VWS V14.01,2013-06-22 00:54:00,
2013-06-21 19:55:00,76.6,51.2,17.72,NW,326,2.2,2.2,41,0.00,,---,0.00,VWS V14.01,2013-06-22 00:55:00,
2013-06-21 19:56:00,76.6,51.2,17.72,NW,326,2.2,2.2,41,0.00,,---,0.00,VWS V14.01,2013-06-22 00:56:00,
2013-06-21 19:58:00,76.6,51.2,17.72,NW,326,0.0,2.2,41,0.00,,---,0.00,VWS V14.01,2013-06-22 00:58:00,
2013-06-21 19:59:00,76.3,50.9,17.72,NW,326,0.0,0.0,41,0.00,,---,0.00,VWS V14.01,2013-06-22 00:59:00,
2013-06-21 20:00:00,76.3,50.9,17.72,NW,326,0.0,0.0,41,0.00,,---,0.00,VWS V14.01,2013-06-22 01:00:00,
2013-06-21 20:02:00,76.3,50.9,17.72,NW,326,0.0,0.0,41,0.00,,---,0.00,VWS V14.01,2013-06-22 01:02:00,
2013-06-21 20:03:00,76.3,50.9,17.72,NW,326,0.0,0.0,41,0.00,,---,0.00,VWS V14.01,2013-06-22 01:03:00,
2013-06-21 20:04:00,76.3,50.9,17.72,NW,326,0.0,0.0,41,0.00,,---,0.00,VWS V14.01,2013-06-22 01:04:00,
2013-06-21 20:05:00,76.3,50.9,17.72,NW,326,0.0,0.0,41,0.00,,---,0.00,VWS V14.01,2013-06-22 01:05:00,
2013-06-21 20:07:00,75.9,50.5,17.72,NW,326,0.0,0.0,41,0.00,,---,0.00,VWS V14.01,2013-06-22 01:07:00,
2013-06-21 20:08:00,75.9,50.5,17.72,NW,326,0.0,0.0,41,0.00,,---,0.00,VWS V14.01,2013-06-22 01:08:00,
2013-06-21 20:09:00,75.9,50.5,17.72,NW,326,0.0,0.0,41,0.00,,---,0.00,VWS V14.01,2013-06-22 01:09:00,
2013-06-21 20:10:00,75.7,50.4,17.72,NW,326,0.0,0.0,41,0.00,,---,0.00,VWS V14.01,2013-06-22 01:10:00,
2013-06-21 20:12:00,75.7,50.4,17.72,NW,326,0.0,0.0,41,0.00,,---,0.00,VWS V14.01,2013-06-22 01:12:00,
2013-06-21 20:13:00,75.7,50.4,17.72,NW,326,0.0,0.0,41,0.00,,---,0.00,VWS V14.01,2013-06-22 01:13:00,
2013-06-21 20:15:00,75.4,50.1,17.72,NW,326,0.0,0.0,41,0.00,,---,0.00,VWS V14.01,2013-06-22 01:15:00,
2013-06-21 20:17:00,75.4,50.1,17.72,NW,326,0.0,0.0,41,0.00,,---,0.00,VWS V14.01,2013-06-22 01:17:00,
2013-06-21 20:18:00,75.2,49.9,17.72,NW,326,0.0,0.0,41,0.00,,---,0.00,VWS V14.01,2013-06-22 01:18:00,
2013-06-21 20:19:00,75.2,49.9,17.72,NW,326,0.0,0.0,41,0.00,,---,0.00,VWS V14.01,2013-06-22 01:19:00,
2013-06-21 20:20:00,75.2,49.9,17.72,NW,326,0.0,0.0,41,0.00,,---,0.00,VWS V14.01,2013-06-22 01:20:00,
2013-06-21 20:23:00,75.0,50.4,17.72,NW,326,0.0,0.0,42,0.00,,---,0.00,VWS V14.01,2013-06-22 01:23:00,
2013-06-21 20:24:00,75.0,50.4,17.72,NW,326,0.0,0.0,42,0.00,,---,0.00,VWS V14.01,2013-06-22 01:24:00,
2013-06-21 20:25:00,74.8,50.2,17.72,NW,326,0.0,0.0,42,0.00,,---,0.00,VWS V14.01,2013-06-22 01:25:00,
2013-06-21 20:26:00,74.8,50.2,17.72,NW,326,0.0,0.0,42,0.00,,---,0.00,VWS V14.01,2013-06-22 01:26:00,
2013-06-21 20:28:00,74.8,50.9,17.72,NW,326,0.0,0.0,43,0.00,,---,0.00,VWS V14.01,2013-06-22 01:28:00,
2013-06-21 20:29:00,74.8,50.9,17.72,NW,326,0.0,0.0,43,0.00,,---,0.00,VWS V14.01,2013-06-22 01:29:00,
2013-06-21 20:30:00,74.7,50.7,17.72,NW,326,0.0,0.0,43,0.00,,---,0.00,VWS V14.01,2013-06-22 01:30:00,
2013-06-21 20:31:00,74.7,50.7,17.72,NW,326,0.0,0.0,43,0.00,,---,0.00,VWS V14.01,2013-06-22 01:31:00,
2013-06-21 20:33:00,74.7,50.7,17.72,NW,326,0.0,0.0,43,0.00,,---,0.00,VWS V14.01,2013-06-22 01:33:00,
2013-06-21 20:34:00,74.7,50.7,17.72,NW,326,0.0,0.0,43,0.00,,---,0.00,VWS V14.01,2013-06-22 01:34:00,
2013-06-21 20:36:00,74.5,50.5,17.72,NW,326,0.0,0.0,43,0.00,,---,0.00,VWS V14.01,2013-06-22 01:36:00,
2013-06-21 20:38:00,74.5,50.5,17.72,NW,326,0.0,0.0,43,0.00,,---,0.00,VWS V14.01,2013-06-22 01:38:00,
2013-06-21 20:39:00,74.3,51.0,17.72,NW,326,0.0,0.0,44,0.00,,---,0.00,VWS V14.01,2013-06-22 01:39:00,
2013-06-21 20:41:00,74.3,51.0,17.72,NW,326,0.0,0.0,44,0.00,,---,0.00,VWS V14.01,2013-06-22 01:41:00,
2013-06-21 20:43:00,74.1,50.8,17.72,NW,326,0.0,0.0,44,0.00,,---,0.00,VWS V14.01,2013-06-22 01:43:00,
2013-06-21 20:44:00,74.1,50.8,17.72,NW,326,0.0,0.0,44,0.00,,---,0.00,VWS V14.01,2013-06-22 01:44:00,
2013-06-21 20:46:00,73.9,51.3,17.72,NW,326,0.0,0.0,45,0.00,,---,0.00,VWS V14.01,2013-06-22 01:46:00,
2013-06-21 20:49:00,73.9,51.3,17.72,NW,326,0.0,0.0,45,0.00,,---,0.00,VWS V14.01,2013-06-22 01:49:00,
2013-06-21 20:50:00,73.9,51.3,17.72,NW,326,0.0,0.0,45,0.00,,---,0.00,VWS V14.01,2013-06-22 01:50:00,
2013-06-21 20:51:00,73.8,51.1,17.72,NW,326,0.0,0.0,45,0.00,,---,0.00,VWS V14.01,2013-06-22 01:51:00,
2013-06-21 20:54:00,73.6,51.0,17.72,NW,326,0.0,0.0,45,0.00,,---,0.00,VWS V14.01,2013-06-22 01:54:00,
2013-06-21 20:55:00,73.6,51.0,17.72,NW,326,0.0,0.0,45,0.00,,---,0.00,VWS V14.01,2013-06-22 01:55:00,
2013-06-21 20:56:00,73.6,51.0,17.72,NW,326,0.0,0.0,45,0.00,,---,0.00,VWS V14.01,2013-06-22 01:56:00,
2013-06-21 20:57:00,73.6,51.0,17.72,NW,326,0.0,0.0,45,0.00,,---,0.00,VWS V14.01,2013-06-22 01:57:00,
2013-06-21 20:59:00,73.4,51.4,17.72,NW,326,0.0,0.0,46,0.00,,---,0.00,VWS V14.01,2013-06-22 01:59:00,
2013-06-21 21:00:00,73.4,51.4,17.72,NW,326,0.0,0.0,46,0.00,,---,0.00,VWS V14.01,2013-06-22 02:00:00,
2013-06-21 21:02:00,73.4,51.4,17.72,NW,326,0.0,0.0,46,0.00,,---,0.00,VWS V14.01,2013-06-22 02:02:00,
2013-06-21 21:04:00,73.4,51.4,17.72,NW,326,0.0,0.0,46,0.00,,---,0.00,VWS V14.01,2013-06-22 02:04:00,
2013-06-21 21:05:00,73.0,51.6,17.72,NW,326,0.0,0.0,47,0.00,,---,0.00,VWS V14.01,2013-06-22 02:05:00,
2013-06-21 21:07:00,73.0,51.6,17.72,NW,326,0.0,0.0,47,0.00,,---,0.00,VWS V14.01,2013-06-22 02:07:00,
2013-06-21 21:09:00,72.9,52.0,17.72,NW,326,0.0,0.0,48,0.00,,---,0.00,VWS V14.01,2013-06-22 02:09:00,
2013-06-21 21:10:00,72.9,52.0,17.72,NW,326,0.0,0.0,48,0.00,,---,0.00,VWS V14.01,2013-06-22 02:10:00,
2013-06-21 21:12:00,72.9,52.0,17.72,NW,326,0.0,0.0,48,0.00,,---,0.00,VWS V14.01,2013-06-22 02:12:00,
2013-06-21 21:13:00,72.9,52.0,17.72,NW,326,0.0,0.0,48,0.00,,---,0.00,VWS V14.01,2013-06-22 02:13:00,
2013-06-21 21:14:00,72.9,52.0,17.72,NW,326,0.0,0.0,48,0.00,,---,0.00,VWS V14.01,2013-06-22 02:14:00,
2013-06-21 21:15:00,72.9,52.0,17.72,NW,326,0.0,0.0,48,0.00,,---,0.00,VWS V14.01,2013-06-22 02:15:00,
2013-06-21 21:17:00,72.7,51.9,17.72,NW,326,0.0,0.0,48,0.00,,---,0.00,VWS V14.01,2013-06-22 02:17:00,
2013-06-21 21:18:00,72.7,51.9,17.72,NW,326,0.0,0.0,48,0.00,,---,0.00,VWS V14.01,2013-06-22 02:18:00,
2013-06-21 21:19:00,72.7,51.9,17.72,NW,326,0.0,0.0,48,0.00,,---,0.00,VWS V14.01,2013-06-22 02:19:00,
2013-06-21 21:20:00,72.7,51.9,17.72,NW,326,0.0,0.0,48,0.00,,---,0.00,VWS V14.01,2013-06-22 02:20:00,
2013-06-21 21:22:00,72.7,51.9,17.72,NW,326,0.0,0.0,48,0.00,,---,0.00,VWS V14.01,2013-06-22 02:22:00,
2013-06-21 21:23:00,72.7,51.9,17.72,NW,326,0.0,0.0,48,0.00,,---,0.00,VWS V14.01,2013-06-22 02:23:00,
2013-06-21 21:24:00,72.5,52.3,17.72,NW,326,0.0,0.0,49,0.00,,---,0.00,VWS V14.01,2013-06-22 02:24:00,
2013-06-21 21:25:00,72.5,52.3,17.72,NW,326,0.0,0.0,49,0.00,,---,0.00,VWS V14.01,2013-06-22 02:25:00,
2013-06-21 21:28:00,72.3,52.1,17.72,NW,325,0.0,0.0,49,0.00,,---,0.00,VWS V14.01,2013-06-22 02:28:00,
2013-06-21 21:29:00,72.3,52.1,17.72,NW,326,0.0,0.0,49,0.00,,---,0.00,VWS V14.01,2013-06-22 02:29:00,
2013-06-21 21:30:00,72.3,52.1,17.72,NW,326,0.0,0.0,49,0.00,,---,0.00,VWS V14.01,2013-06-22 02:30:00,
2013-06-21 21:33:00,72.1,52.5,17.72,NW,326,0.0,0.0,50,0.00,,---,0.00,VWS V14.01,2013-06-22 02:33:00,
2013-06-21 21:34:00,72.1,53.0,17.72,NW,326,0.0,0.0,51,0.00,,---,0.00,VWS V14.01,2013-06-22 02:34:00,
2013-06-21 21:35:00,72.1,53.0,17.72,NW,326,0.0,0.0,51,0.00,,---,0.00,VWS V14.01,2013-06-22 02:35:00,
2013-06-21 21:38:00,72.1,53.0,17.72,NW,326,0.0,0.0,51,0.00,,---,0.00,VWS V14.01,2013-06-22 02:38:00,
2013-06-21 21:39:00,72.1,53.0,17.72,NW,326,0.0,0.0,51,0.00,,---,0.00,VWS V14.01,2013-06-22 02:39:00,
2013-06-21 21:40:00,72.1,53.0,17.72,NW,326,0.0,0.0,51,0.00,,---,0.00,VWS V14.01,2013-06-22 02:40:00,
2013-06-21 21:43:00,72.1,53.0,17.72,NW,326,0.0,0.0,51,0.00,,---,0.00,VWS V14.01,2013-06-22 02:43:00,
2013-06-21 21:44:00,72.1,53.0,17.72,NW,326,0.0,0.0,51,0.00,,---,0.00,VWS V14.01,2013-06-22 02:44:00,
2013-06-21 21:45:00,72.0,53.4,17.72,NW,326,0.0,0.0,52,0.00,,---,0.00,VWS V14.01,2013-06-22 02:45:00,
2013-06-21 21:46:00,71.8,53.2,17.72,NW,326,0.0,0.0,52,0.00,,---,0.00,VWS V14.01,2013-06-22 02:46:00,
2013-06-21 21:48:00,71.8,53.2,17.72,NW,326,0.0,0.0,52,0.00,,---,0.00,VWS V14.01,2013-06-22 02:48:00,
2013-06-21 21:49:00,71.8,53.2,17.72,NW,326,0.0,0.0,52,0.00,,---,0.00,VWS V14.01,2013-06-22 02:49:00,
2013-06-21 21:50:00,71.8,53.2,17.72,NW,326,0.0,0.0,52,0.00,,---,0.00,VWS V14.01,2013-06-22 02:50:00,
2013-06-21 21:51:00,71.8,53.2,17.72,NW,326,0.0,0.0,52,0.00,,---,0.00,VWS V14.01,2013-06-22 02:51:00,
2013-06-21 21:53:00,71.8,53.8,17.72,NW,326,0.0,0.0,53,0.00,,---,0.00,VWS V14.01,2013-06-22 02:53:00,
2013-06-21 21:54:00,71.6,53.6,17.72,NW,326,0.0,0.0,53,0.00,,---,0.00,VWS V14.01,2013-06-22 02:54:00,
2013-06-21 21:55:00,71.6,53.6,17.72,NW,326,0.0,0.0,53,0.00,,---,0.00,VWS V14.01,2013-06-22 02:55:00,
2013-06-21 21:56:00,71.6,53.6,17.72,NW,326,0.0,0.0,53,0.00,,---,0.00,VWS V14.01,2013-06-22 02:56:00,
2013-06-21 21:58:00,71.6,53.6,17.72,NW,326,0.0,0.0,53,0.00,,---,0.00,VWS V14.01,2013-06-22 02:58:00,
2013-06-21 21:59:00,71.6,53.6,17.72,NW,326,0.0,0.0,53,0.00,,---,0.00,VWS V14.01,2013-06-22 02:59:00,
2013-06-21 22:00:00,71.6,53.6,17.72,NW,326,0.0,0.0,53,0.00,,---,0.00,VWS V14.01,2013-06-22 03:00:00,
2013-06-21 22:01:00,71.6,54.1,17.72,NW,326,0.0,0.0,54,0.00,,---,0.00,VWS V14.01,2013-06-22 03:01:00,
2013-06-21 22:03:00,71.4,54.4,17.72,NW,326,0.0,0.0,55,0.00,,---,0.00,VWS V14.01,2013-06-22 03:03:00,
2013-06-21 22:04:00,71.4,54.4,17.72,NW,326,0.0,0.0,55,0.00,,---,0.00,VWS V14.01,2013-06-22 03:04:00,
2013-06-21 22:05:00,71.4,54.9,17.72,NW,326,0.0,0.0,56,0.00,,---,0.00,VWS V14.01,2013-06-22 03:05:00,
2013-06-21 22:06:00,71.4,54.9,17.72,NW,326,0.0,0.0,56,0.00,,---,0.00,VWS V14.01,2013-06-22 03:06:00,
2013-06-21 22:08:00,71.4,54.9,17.72,NW,326,0.0,0.0,56,0.00,,---,0.00,VWS V14.01,2013-06-22 03:08:00,
2013-06-21 22:09:00,71.4,54.9,17.72,NW,326,0.0,0.0,56,0.00,,---,0.00,VWS V14.01,2013-06-22 03:09:00,
2013-06-21 22:11:00,71.4,54.9,17.72,NW,326,0.0,0.0,56,0.00,,---,0.00,VWS V14.01,2013-06-22 03:11:00,
2013-06-21 22:13:00,71.4,54.9,17.72,NW,326,0.0,0.0,56,0.00,,---,0.00,VWS V14.01,2013-06-22 03:13:00,
2013-06-21 22:15:00,71.4,55.4,17.72,NW,326,0.0,0.0,57,0.00,,---,0.00,VWS V14.01,2013-06-22 03:15:00,
2013-06-21 22:16:00,71.4,55.4,17.72,NW,326,0.0,0.0,57,0.00,,---,0.00,VWS V14.01,2013-06-22 03:16:00,
2013-06-21 22:18:00,71.4,55.4,17.72,NW,326,0.0,0.0,57,0.00,,---,0.00,VWS V14.01,2013-06-22 03:18:00,
2013-06-21 22:20:00,71.4,55.9,17.72,NW,326,0.0,0.0,58,0.00,,---,0.00,VWS V14.01,2013-06-22 03:20:00,
2013-06-21 22:21:00,71.2,55.7,17.72,NW,326,0.0,0.0,58,0.00,,---,0.00,VWS V14.01,2013-06-22 03:21:00,
2013-06-21 22:24:00,71.2,55.7,17.72,NW,326,0.0,0.0,58,0.00,,---,0.00,VWS V14.01,2013-06-22 03:24:00,
2013-06-21 22:25:00,71.2,55.7,17.72,NW,326,0.0,0.0,58,0.00,,---,0.00,VWS V14.01,2013-06-22 03:25:00,
2013-06-21 22:26:00,71.2,55.7,17.72,NW,326,0.0,0.0,58,0.00,,---,0.00,VWS V14.01,2013-06-22 03:26:00,
2013-06-21 22:27:00,71.2,55.7,17.72,NW,326,0.0,0.0,58,0.00,,---,0.00,VWS V14.01,2013-06-22 03:27:00,
2013-06-21 22:29:00,71.2,55.7,17.72,NW,326,0.0,0.0,58,0.00,,---,0.00,VWS V14.01,2013-06-22 03:29:00,
2013-06-21 22:30:00,71.2,55.7,17.72,NW,326,0.0,0.0,58,0.00,,---,0.00,VWS V14.01,2013-06-22 03:30:00,
2013-06-21 22:32:00,71.2,56.2,17.72,NW,326,0.0,0.0,59,0.00,,---,0.00,VWS V14.01,2013-06-22 03:32:00,
2013-06-21 22:34:00,71.2,56.2,17.72,NW,326,0.0,0.0,59,0.00,,---,0.00,VWS V14.01,2013-06-22 03:34:00,
2013-06-21 22:35:00,71.2,56.2,17.72,NW,326,0.0,0.0,59,0.00,,---,0.00,VWS V14.01,2013-06-22 03:35:00,
2013-06-21 22:37:00,71.2,56.2,17.72,NW,326,0.0,0.0,59,0.00,,---,0.00,VWS V14.01,2013-06-22 03:37:00,
2013-06-21 22:39:00,71.1,56.0,17.72,NW,326,0.0,0.0,59,0.00,,---,0.00,VWS V14.01,2013-06-22 03:39:00,
2013-06-21 22:41:00,71.1,56.0,17.72,NW,326,0.0,0.0,59,0.00,,---,0.00,VWS V14.01,2013-06-22 03:41:00,
2013-06-21 22:42:00,71.1,56.0,17.72,NW,326,0.0,0.0,59,0.00,,---,0.00,VWS V14.01,2013-06-22 03:42:00,
2013-06-21 22:44:00,70.9,55.8,17.72,NW,326,0.0,0.0,59,0.00,,---,0.00,VWS V14.01,2013-06-22 03:44:00,
2013-06-21 22:46:00,70.9,56.3,17.72,NW,326,0.0,0.0,60,0.00,,---,0.00,VWS V14.01,2013-06-22 03:46:00,
2013-06-21 22:47:00,70.9,56.3,17.72,NW,326,0.0,0.0,60,0.00,,---,0.00,VWS V14.01,2013-06-22 03:47:00,
2013-06-21 22:48:00,70.9,56.3,17.72,NW,326,0.0,0.0,60,0.00,,---,0.00,VWS V14.01,2013-06-22 03:48:00,
2013-06-21 22:50:00,70.9,56.3,17.72,NW,326,0.0,0.0,60,0.00,,---,0.00,VWS V14.01,2013-06-22 03:50:00,
2013-06-21 22:51:00,70.9,56.3,17.72,NW,326,0.0,0.0,60,0.00,,---,0.00,VWS V14.01,2013-06-22 03:51:00,
2013-06-21 22:52:00,70.9,56.8,17.72,NW,326,0.0,0.0,61,0.00,,---,0.00,VWS V14.01,2013-06-22 03:52:00,
2013-06-21 22:53:00,70.9,56.8,17.72,NW,326,0.0,0.0,61,0.00,,---,0.00,VWS V14.01,2013-06-22 03:53:00,
2013-06-21 22:55:00,70.7,56.6,17.72,NW,326,0.0,0.0,61,0.00,,---,0.00,VWS V14.01,2013-06-22 03:55:00,
2013-06-21 22:57:00,70.7,56.6,17.72,NW,326,0.0,0.0,61,0.00,,---,0.00,VWS V14.01,2013-06-22 03:57:00,
2013-06-21 22:58:00,70.7,56.6,17.72,NW,326,0.0,0.0,61,0.00,,---,0.00,VWS V14.01,2013-06-22 03:58:00,
2013-06-21 23:00:00,70.7,56.6,17.72,NW,326,0.0,0.0,61,0.00,,---,0.00,VWS V14.01,2013-06-22 04:00:00,
2013-06-21 23:01:00,70.7,57.1,17.72,NW,326,0.0,0.0,62,0.00,,---,0.00,VWS V14.01,2013-06-22 04:01:00,
2013-06-21 23:02:00,70.7,57.1,17.72,NW,326,0.0,0.0,62,0.00,,---,0.00,VWS V14.01,2013-06-22 04:02:00,
2013-06-21 23:03:00,70.7,57.1,17.72,NW,326,0.0,0.0,62,0.00,,---,0.00,VWS V14.01,2013-06-22 04:03:00,
2013-06-21 23:04:00,70.5,56.9,17.72,NW,326,0.0,0.0,62,0.00,,---,0.00,VWS V14.01,2013-06-22 04:04:00,
2013-06-21 23:05:00,70.5,56.9,17.72,NW,326,0.0,0.0,62,0.00,,---,0.00,VWS V14.01,2013-06-22 04:05:00,
2013-06-21 23:06:00,70.5,56.9,17.72,NW,326,0.0,0.0,62,0.00,,---,0.00,VWS V14.01,2013-06-22 04:06:00,
2013-06-21 23:07:00,70.5,56.9,17.72,NW,326,0.0,0.0,62,0.00,,---,0.00,VWS V14.01,2013-06-22 04:07:00,
2013-06-21 23:08:00,70.5,56.9,17.72,NW,326,0.0,0.0,62,0.00,,---,0.00,VWS V14.01,2013-06-22 04:08:00,
2013-06-21 23:09:00,70.5,56.9,17.72,NW,326,0.0,0.0,62,0.00,,---,0.00,VWS V14.01,2013-06-22 04:09:00,
2013-06-21 23:10:00,70.5,56.9,17.72,NW,326,0.0,0.0,62,0.00,,---,0.00,VWS V14.01,2013-06-22 04:10:00,
2013-06-21 23:11:00,70.5,56.9,17.72,NW,326,0.0,0.0,62,0.00,,---,0.00,VWS V14.01,2013-06-22 04:11:00,
2013-06-21 23:12:00,70.5,56.9,17.72,NW,326,0.0,0.0,62,0.00,,---,0.00,VWS V14.01,2013-06-22 04:12:00,
2013-06-21 23:13:00,70.5,56.9,17.72,NW,326,0.0,0.0,62,0.00,,---,0.00,VWS V14.01,2013-06-22 04:13:00,
2013-06-21 23:14:00,70.5,56.9,17.72,NW,326,0.0,0.0,62,0.00,,---,0.00,VWS V14.01,2013-06-22 04:14:00,
2013-06-21 23:15:00,70.3,56.7,17.72,NW,326,0.0,0.0,62,0.00,,---,0.00,VWS V14.01,2013-06-22 04:15:00,
2013-06-21 23:16:00,70.3,56.7,17.72,NW,326,0.0,0.0,62,0.00,,---,0.00,VWS V14.01,2013-06-22 04:16:00,
2013-06-21 23:17:00,70.3,56.7,17.72,NW,326,0.0,0.0,62,0.00,,---,0.00,VWS V14.01,2013-06-22 04:17:00,
2013-06-21 23:18:00,70.3,56.7,17.72,NW,326,0.0,0.0,62,0.00,,---,0.00,VWS V14.01,2013-06-22 04:18:00,
2013-06-21 23:19:00,70.3,56.7,17.72,NW,326,0.0,0.0,62,0.00,,---,0.00,VWS V14.01,2013-06-22 04:19:00,
2013-06-21 23:20:00,70.3,56.7,17.72,NW,326,0.0,0.0,62,0.00,,---,0.00,VWS V14.01,2013-06-22 04:20:00,
2013-06-21 23:21:00,70.3,56.7,17.72,NW,326,0.0,0.0,62,0.00,,---,0.00,VWS V14.01,2013-06-22 04:21:00,
2013-06-21 23:22:00,70.3,56.7,17.72,NW,326,0.0,0.0,62,0.00,,---,0.00,VWS V14.01,2013-06-22 04:22:00,
2013-06-21 23:23:00,70.3,56.7,17.72,NW,326,0.0,0.0,62,0.00,,---,0.00,VWS V14.01,2013-06-22 04:23:00,
2013-06-21 23:24:00,70.3,56.7,17.72,NW,326,0.0,0.0,62,0.00,,---,0.00,VWS V14.01,2013-06-22 04:24:00,
2013-06-21 23:25:00,70.3,56.7,17.72,NW,326,0.0,0.0,62,0.00,,---,0.00,VWS V14.01,2013-06-22 04:25:00,
2013-06-21 23:26:00,70.3,56.7,17.72,NW,326,0.0,0.0,62,0.00,,---,0.00,VWS V14.01,2013-06-22 04:26:00,
2013-06-21 23:27:00,70.3,56.7,17.72,NW,326,0.0,0.0,62,0.00,,---,0.00,VWS V14.01,2013-06-22 04:27:00,
2013-06-21 23:28:00,70.2,56.5,17.72,NW,326,0.0,0.0,62,0.00,,---,0.00,VWS V14.01,2013-06-22 04:28:00,
2013-06-21 23:29:00,70.2,56.5,17.72,NW,326,0.0,0.0,62,0.00,,---,0.00,VWS V14.01,2013-06-22 04:29:00,
2013-06-21 23:30:00,70.2,56.5,17.72,NW,326,0.0,0.0,62,0.00,,---,0.00,VWS V14.01,2013-06-22 04:30:00,
2013-06-21 23:31:00,70.2,56.5,17.72,NW,326,0.0,0.0,62,0.00,,---,0.00,VWS V14.01,2013-06-22 04:31:00,
2013-06-21 23:32:00,70.2,56.5,17.72,NW,326,0.0,0.0,62,0.00,,---,0.00,VWS V14.01,2013-06-22 04:32:00,
2013-06-21 23:33:00,70.2,56.5,17.72,NW,326,0.0,0.0,62,0.00,,---,0.00,VWS V14.01,2013-06-22 04:33:00,
2013-06-21 23:34:00,70.2,56.5,17.72,NW,326,0.0,0.0,62,0.00,,---,0.00,VWS V14.01,2013-06-22 04:34:00,
2013-06-21 23:35:00,70.2,56.5,17.72,NW,326,0.0,0.0,62,0.00,,---,0.00,VWS V14.01,2013-06-22 04:35:00,
2013-06-21 23:36:00,70.2,56.5,17.72,NW,326,0.0,0.0,62,0.00,,---,0.00,VWS V14.01,2013-06-22 04:36:00,
2013-06-21 23:37:00,70.2,56.5,17.72,NW,326,0.0,0.0,62,0.00,,---,0.00,VWS V14.01,2013-06-22 04:37:00,
2013-06-21 23:38:00,70.2,56.5,17.72,NW,326,0.0,0.0,62,0.00,,---,0.00,VWS V14.01,2013-06-22 04:38:00,
2013-06-21 23:39:00,70.2,56.5,17.72,NW,326,0.0,0.0,62,0.00,,---,0.00,VWS V14.01,2013-06-22 04:39:00,
2013-06-21 23:40:00,70.2,56.5,17.72,NW,326,0.0,0.0,62,0.00,,---,0.00,VWS V14.01,2013-06-22 04:40:00,
2013-06-21 23:41:00,70.2,57.0,17.72,NW,326,0.0,0.0,63,0.00,,---,0.00,VWS V14.01,2013-06-22 04:41:00,
2013-06-21 23:42:00,70.2,57.0,17.72,NW,326,0.0,0.0,63,0.00,,---,0.00,VWS V14.01,2013-06-22 04:42:00,
2013-06-21 23:43:00,70.2,57.0,17.72,NW,326,0.0,0.0,63,0.00,,---,0.00,VWS V14.01,2013-06-22 04:43:00,
2013-06-21 23:44:00,70.2,57.0,17.72,NW,326,0.0,0.0,63,0.00,,---,0.00,VWS V14.01,2013-06-22 04:44:00,
2013-06-21 23:45:00,70.2,57.0,17.72,NW,326,0.0,0.0,63,0.00,,---,0.00,VWS V14.01,2013-06-22 04:45:00,
2013-06-21 23:46:00,70.2,57.0,17.72,NW,326,0.0,0.0,63,0.00,,---,0.00,VWS V14.01,2013-06-22 04:46:00,
2013-06-21 23:47:00,70.2,57.0,17.72,NW,326,0.0,0.0,63,0.00,,---,0.00,VWS V14.01,2013-06-22 04:47:00,
2013-06-21 23:48:00,70.0,56.8,17.72,NW,326,0.0,0.0,63,0.00,,---,0.00,VWS V14.01,2013-06-22 04:48:00,
2013-06-21 23:49:00,70.0,56.8,17.72,NW,326,0.0,0.0,63,0.00,,---,0.00,VWS V14.01,2013-06-22 04:49:00,
2013-06-21 23:50:00,70.0,56.8,17.72,NW,326,0.0,0.0,63,0.00,,---,0.00,VWS V14.01,2013-06-22 04:50:00,
2013-06-21 23:51:00,70.0,56.8,17.72,NW,326,0.0,0.0,63,0.00,,---,0.00,VWS V14.01,2013-06-22 04:51:00,
2013-06-21 23:52:00,70.0,56.8,17.72,NW,326,0.0,0.0,63,0.00,,---,0.00,VWS V14.01,2013-06-22 04:52:00,
2013-06-21 23:53:00,70.0,56.8,17.72,NW,326,0.0,0.0,63,0.00,,---,0.00,VWS V14.01,2013-06-22 04:53:00,
2013-06-21 23:54:00,70.0,56.8,17.72,NW,326,0.0,0.0,63,0.00,,---,0.00,VWS V14.01,2013-06-22 04:54:00,
2013-06-21 23:55:00,70.0,56.8,17.72,NW,326,0.0,0.0,63,0.00,,---,0.00,VWS V14.01,2013-06-22 04:55:00,
2013-06-21 23:56:00,70.0,56.8,17.72,NW,326,0.0,0.0,63,0.00,,---,0.00,VWS V14.01,2013-06-22 04:56:00,
2013-06-21 23:57:00,70.0,56.8,17.72,NW,326,0.0,0.0,63,0.00,,---,0.00,VWS V14.01,2013-06-22 04:57:00,
2013-06-21 23:58:00,70.0,56.8,17.72,NW,326,0.0,0.0,63,0.00,,---,0.00,VWS V14.01,2013-06-22 04:58:00,
2013-06-21 23:59:00,70.0,56.8,17.72,NW,326,0.0,0.0,63,0.00,,---,0.00,VWS V14.01,2013-06-22 04:59:00,